<?xml version="1.0" encoding="UTF-8"?>
<gpx xmlns="http://www.topografix.com/GPX/1/1" xmlns:gpsies="https://www.gpsies.com/GPX/1/0" creator="AllTrails https://www.alltrails.com/ - Frangifuoco_short_2-7832265_course" version="1.1" xmlns:xsi="http://www.w3.org/2001/XMLSchema-instance" xsi:schemaLocation="http://www.topografix.com/GPX/1/1 http://www.topografix.com/GPX/1/1/gpx.xsd https://www.gpsies.com/GPX/1/0 https://www.gpsies.com/gpsies.xsd">
  <metadata>
    <name>Frangifuoco_short_2-7832265_course</name>
    <link href="https://www.gpsies.com/">
      <text>Frangifuoco_short_2-7832265_course on AllTrails</text>
    </link>
    <time>2024-05-14T08:52:35Z</time>
  </metadata>
  <trk>
    <name>Frangifuoco_short_2-7832265_course on AllTrails</name>
    <trkseg>
      <trkpt lat="42.82192993" lon="13.55282999">
        <ele>397.00000</ele>
        <time>2024-05-13T12:20:28Z</time>
      </trkpt>
      <trkpt lat="42.82191996" lon="13.55284994">
        <ele>397.00000</ele>
        <time>2024-05-13T12:20:28Z</time>
      </trkpt>
      <trkpt lat="42.82179993" lon="13.55286997">
        <ele>400.00000</ele>
        <time>2024-05-13T12:20:30Z</time>
      </trkpt>
      <trkpt lat="42.82173992" lon="13.55284994">
        <ele>402.00000</ele>
        <time>2024-05-13T12:20:32Z</time>
      </trkpt>
      <trkpt lat="42.82172994" lon="13.55277995">
        <ele>403.00000</ele>
        <time>2024-05-13T12:20:33Z</time>
      </trkpt>
      <trkpt lat="42.82185995" lon="13.55247996">
        <ele>403.00000</ele>
        <time>2024-05-13T12:20:38Z</time>
      </trkpt>
      <trkpt lat="42.82188995" lon="13.55223999">
        <ele>408.00000</ele>
        <time>2024-05-13T12:20:41Z</time>
      </trkpt>
      <trkpt lat="42.82206991" lon="13.55208492">
        <ele>408.00000</ele>
        <time>2024-05-13T12:20:46Z</time>
      </trkpt>
      <trkpt lat="42.82224996" lon="13.55192994">
        <ele>406.00000</ele>
        <time>2024-05-13T12:20:50Z</time>
      </trkpt>
      <trkpt lat="42.82229991" lon="13.55184998">
        <ele>407.00000</ele>
        <time>2024-05-13T12:20:51Z</time>
      </trkpt>
      <trkpt lat="42.82229991" lon="13.55167999">
        <ele>408.00000</ele>
        <time>2024-05-13T12:20:54Z</time>
      </trkpt>
      <trkpt lat="42.82200998" lon="13.55173992">
        <ele>414.00000</ele>
        <time>2024-05-13T12:21:00Z</time>
      </trkpt>
      <trkpt lat="42.82188995" lon="13.55179994">
        <ele>416.00000</ele>
        <time>2024-05-13T12:21:02Z</time>
      </trkpt>
      <trkpt lat="42.82178996" lon="13.55180991">
        <ele>417.00000</ele>
        <time>2024-05-13T12:21:04Z</time>
      </trkpt>
      <trkpt lat="42.82161997" lon="13.55187999">
        <ele>419.00000</ele>
        <time>2024-05-13T12:21:08Z</time>
      </trkpt>
      <trkpt lat="42.82153992" lon="13.55186993">
        <ele>419.00000</ele>
        <time>2024-05-13T12:21:09Z</time>
      </trkpt>
      <trkpt lat="42.82139995" lon="13.55190999">
        <ele>420.00000</ele>
        <time>2024-05-13T12:21:12Z</time>
      </trkpt>
      <trkpt lat="42.82108998" lon="13.55189993">
        <ele>422.00000</ele>
        <time>2024-05-13T12:21:18Z</time>
      </trkpt>
      <trkpt lat="42.82089997" lon="13.55196992">
        <ele>426.00000</ele>
        <time>2024-05-13T12:21:22Z</time>
      </trkpt>
      <trkpt lat="42.82079997" lon="13.55204997">
        <ele>428.00000</ele>
        <time>2024-05-13T12:21:25Z</time>
      </trkpt>
      <trkpt lat="42.82067994" lon="13.55208995">
        <ele>433.00000</ele>
        <time>2024-05-13T12:21:27Z</time>
      </trkpt>
      <trkpt lat="42.82059998" lon="13.55206992">
        <ele>436.00000</ele>
        <time>2024-05-13T12:21:29Z</time>
      </trkpt>
      <trkpt lat="42.82059998" lon="13.55200999">
        <ele>436.00000</ele>
        <time>2024-05-13T12:21:30Z</time>
      </trkpt>
      <trkpt lat="42.82070995" lon="13.55184998">
        <ele>433.00000</ele>
        <time>2024-05-13T12:21:33Z</time>
      </trkpt>
      <trkpt lat="42.82072998" lon="13.55176993">
        <ele>432.00000</ele>
        <time>2024-05-13T12:21:34Z</time>
      </trkpt>
      <trkpt lat="42.82063996" lon="13.55170992">
        <ele>436.00000</ele>
        <time>2024-05-13T12:21:36Z</time>
      </trkpt>
      <trkpt lat="42.82043997" lon="13.55166994">
        <ele>442.00000</ele>
        <time>2024-05-13T12:21:40Z</time>
      </trkpt>
      <trkpt lat="42.82029999" lon="13.55159995">
        <ele>445.00000</ele>
        <time>2024-05-13T12:21:43Z</time>
      </trkpt>
      <trkpt lat="42.82004996" lon="13.55137992">
        <ele>443.00000</ele>
        <time>2024-05-13T12:21:49Z</time>
      </trkpt>
      <trkpt lat="42.81988995" lon="13.55127993">
        <ele>444.00000</ele>
        <time>2024-05-13T12:21:53Z</time>
      </trkpt>
      <trkpt lat="42.81970018" lon="13.55124992">
        <ele>447.00000</ele>
        <time>2024-05-13T12:21:57Z</time>
      </trkpt>
      <trkpt lat="42.81950999" lon="13.55121999">
        <ele>448.00000</ele>
        <time>2024-05-13T12:22:00Z</time>
      </trkpt>
      <trkpt lat="42.81929994" lon="13.55114992">
        <ele>448.00000</ele>
        <time>2024-05-13T12:22:05Z</time>
      </trkpt>
      <trkpt lat="42.81914999" lon="13.55116995">
        <ele>450.00000</ele>
        <time>2024-05-13T12:22:08Z</time>
      </trkpt>
      <trkpt lat="42.81905997" lon="13.55114992">
        <ele>450.00000</ele>
        <time>2024-05-13T12:22:09Z</time>
      </trkpt>
      <trkpt lat="42.81875998" lon="13.55102998">
        <ele>448.00000</ele>
        <time>2024-05-13T12:22:16Z</time>
      </trkpt>
      <trkpt lat="42.81852998" lon="13.55096996">
        <ele>449.00000</ele>
        <time>2024-05-13T12:22:20Z</time>
      </trkpt>
      <trkpt lat="42.81834994" lon="13.55097994">
        <ele>452.00000</ele>
        <time>2024-05-13T12:22:24Z</time>
      </trkpt>
      <trkpt lat="42.81817995" lon="13.55095999">
        <ele>455.00000</ele>
        <time>2024-05-13T12:22:27Z</time>
      </trkpt>
      <trkpt lat="42.81793009" lon="13.55082001">
        <ele>457.00000</ele>
        <time>2024-05-13T12:22:33Z</time>
      </trkpt>
      <trkpt lat="42.81767997" lon="13.55067995">
        <ele>460.00000</ele>
        <time>2024-05-13T12:22:38Z</time>
      </trkpt>
      <trkpt lat="42.81757998" lon="13.55065992">
        <ele>463.00000</ele>
        <time>2024-05-13T12:22:40Z</time>
      </trkpt>
      <trkpt lat="42.81742994" lon="13.55065992">
        <ele>468.00000</ele>
        <time>2024-05-13T12:22:43Z</time>
      </trkpt>
      <trkpt lat="42.81738996" lon="13.55067995">
        <ele>470.00000</ele>
        <time>2024-05-13T12:22:44Z</time>
      </trkpt>
      <trkpt lat="42.81712995" lon="13.55066997">
        <ele>480.00000</ele>
        <time>2024-05-13T12:22:49Z</time>
      </trkpt>
      <trkpt lat="42.81706994" lon="13.55063997">
        <ele>483.00000</ele>
        <time>2024-05-13T12:22:51Z</time>
      </trkpt>
      <trkpt lat="42.81703993" lon="13.55048993">
        <ele>482.00000</ele>
        <time>2024-05-13T12:22:53Z</time>
      </trkpt>
      <trkpt lat="42.81708997" lon="13.55033998">
        <ele>477.00000</ele>
        <time>2024-05-13T12:22:55Z</time>
      </trkpt>
      <trkpt lat="42.81709995" lon="13.55017997">
        <ele>473.00000</ele>
        <time>2024-05-13T12:22:58Z</time>
      </trkpt>
      <trkpt lat="42.81695997" lon="13.54982994">
        <ele>476.00000</ele>
        <time>2024-05-13T12:23:04Z</time>
      </trkpt>
      <trkpt lat="42.81685997" lon="13.54969994">
        <ele>480.00000</ele>
        <time>2024-05-13T12:23:06Z</time>
      </trkpt>
      <trkpt lat="42.81678998" lon="13.54950992">
        <ele>479.00000</ele>
        <time>2024-05-13T12:23:09Z</time>
      </trkpt>
      <trkpt lat="42.81660994" lon="13.54927992">
        <ele>483.00000</ele>
        <time>2024-05-13T12:23:14Z</time>
      </trkpt>
      <trkpt lat="42.81651992" lon="13.54918998">
        <ele>485.00000</ele>
        <time>2024-05-13T12:23:17Z</time>
      </trkpt>
      <trkpt lat="42.81637994" lon="13.54909996">
        <ele>488.00000</ele>
        <time>2024-05-13T12:23:20Z</time>
      </trkpt>
      <trkpt lat="42.81623485" lon="13.54893987">
        <ele>486.00000</ele>
        <time>2024-05-13T12:23:23Z</time>
      </trkpt>
      <trkpt lat="42.81608993" lon="13.54877994">
        <ele>483.00000</ele>
        <time>2024-05-13T12:23:27Z</time>
      </trkpt>
      <trkpt lat="42.81592992" lon="13.54874993">
        <ele>484.00000</ele>
        <time>2024-05-13T12:23:30Z</time>
      </trkpt>
      <trkpt lat="42.81583998" lon="13.54876996">
        <ele>486.00000</ele>
        <time>2024-05-13T12:23:32Z</time>
      </trkpt>
      <trkpt lat="42.81566999" lon="13.54875999">
        <ele>485.00000</ele>
        <time>2024-05-13T12:23:36Z</time>
      </trkpt>
      <trkpt lat="42.81543999" lon="13.54881992">
        <ele>485.00000</ele>
        <time>2024-05-13T12:23:40Z</time>
      </trkpt>
      <trkpt lat="42.81534997" lon="13.54903995">
        <ele>492.00000</ele>
        <time>2024-05-13T12:23:44Z</time>
      </trkpt>
      <trkpt lat="42.81534997" lon="13.54911999">
        <ele>494.00000</ele>
        <time>2024-05-13T12:23:45Z</time>
      </trkpt>
      <trkpt lat="42.81515995" lon="13.54942996">
        <ele>503.00000</ele>
        <time>2024-05-13T12:23:51Z</time>
      </trkpt>
      <trkpt lat="42.81510991" lon="13.54946994">
        <ele>503.00000</ele>
        <time>2024-05-13T12:23:52Z</time>
      </trkpt>
      <trkpt lat="42.81491998" lon="13.54953993">
        <ele>503.00000</ele>
        <time>2024-05-13T12:23:56Z</time>
      </trkpt>
      <trkpt lat="42.81475511" lon="13.54954487">
        <ele>501.00000</ele>
        <time>2024-05-13T12:24:00Z</time>
      </trkpt>
      <trkpt lat="42.81458999" lon="13.54954998">
        <ele>500.00000</ele>
        <time>2024-05-13T12:24:03Z</time>
      </trkpt>
      <trkpt lat="42.81443006" lon="13.54960489">
        <ele>501.00000</ele>
        <time>2024-05-13T12:24:06Z</time>
      </trkpt>
      <trkpt lat="42.81426996" lon="13.54965995">
        <ele>503.00000</ele>
        <time>2024-05-13T12:24:09Z</time>
      </trkpt>
      <trkpt lat="42.81415999" lon="13.54973992">
        <ele>505.00000</ele>
        <time>2024-05-13T12:24:12Z</time>
      </trkpt>
      <trkpt lat="42.81409998" lon="13.54990999">
        <ele>511.00000</ele>
        <time>2024-05-13T12:24:15Z</time>
      </trkpt>
      <trkpt lat="42.81407995" lon="13.55008995">
        <ele>516.00000</ele>
        <time>2024-05-13T12:24:17Z</time>
      </trkpt>
      <trkpt lat="42.81407995" lon="13.55013999">
        <ele>518.00000</ele>
        <time>2024-05-13T12:24:18Z</time>
      </trkpt>
      <trkpt lat="42.81412999" lon="13.55016999">
        <ele>518.00000</ele>
        <time>2024-05-13T12:24:19Z</time>
      </trkpt>
      <trkpt lat="42.81422998" lon="13.55015994">
        <ele>517.00000</ele>
        <time>2024-05-13T12:24:21Z</time>
      </trkpt>
      <trkpt lat="42.81418992" lon="13.55020998">
        <ele>519.00000</ele>
        <time>2024-05-13T12:24:22Z</time>
      </trkpt>
      <trkpt lat="42.81423996" lon="13.55012993">
        <ele>516.00000</ele>
        <time>2024-05-13T12:24:24Z</time>
      </trkpt>
      <trkpt lat="42.81442997" lon="13.55021995">
        <ele>520.00000</ele>
        <time>2024-05-13T12:24:28Z</time>
      </trkpt>
      <trkpt lat="42.81452997" lon="13.55028994">
        <ele>523.00000</ele>
        <time>2024-05-13T12:24:30Z</time>
      </trkpt>
      <trkpt lat="42.81464992" lon="13.55045992">
        <ele>529.00000</ele>
        <time>2024-05-13T12:24:34Z</time>
      </trkpt>
      <trkpt lat="42.81489970" lon="13.55056478">
        <ele>532.00000</ele>
        <time>2024-05-13T12:24:39Z</time>
      </trkpt>
      <trkpt lat="42.81514998" lon="13.55066997">
        <ele>538.00000</ele>
        <time>2024-05-13T12:24:44Z</time>
      </trkpt>
      <trkpt lat="42.81523992" lon="13.55049999">
        <ele>536.00000</ele>
        <time>2024-05-13T12:24:47Z</time>
      </trkpt>
      <trkpt lat="42.81546992" lon="13.55023998">
        <ele>535.00000</ele>
        <time>2024-05-13T12:24:53Z</time>
      </trkpt>
      <trkpt lat="42.81566999" lon="13.55017997">
        <ele>536.00000</ele>
        <time>2024-05-13T12:24:57Z</time>
      </trkpt>
      <trkpt lat="42.81571995" lon="13.55017997">
        <ele>536.00000</ele>
        <time>2024-05-13T12:24:58Z</time>
      </trkpt>
      <trkpt lat="42.81582992" lon="13.55023998">
        <ele>539.00000</ele>
        <time>2024-05-13T12:25:01Z</time>
      </trkpt>
      <trkpt lat="42.81595992" lon="13.55044995">
        <ele>542.00000</ele>
        <time>2024-05-13T12:25:05Z</time>
      </trkpt>
      <trkpt lat="42.81603997" lon="13.55052991">
        <ele>542.00000</ele>
        <time>2024-05-13T12:25:07Z</time>
      </trkpt>
      <trkpt lat="42.81607995" lon="13.55059999">
        <ele>543.00000</ele>
        <time>2024-05-13T12:25:08Z</time>
      </trkpt>
      <trkpt lat="42.81612999" lon="13.55083996">
        <ele>546.00000</ele>
        <time>2024-05-13T12:25:12Z</time>
      </trkpt>
      <trkpt lat="42.81611993" lon="13.55098991">
        <ele>546.00000</ele>
        <time>2024-05-13T12:25:14Z</time>
      </trkpt>
      <trkpt lat="42.81596998" lon="13.55118999">
        <ele>552.00000</ele>
        <time>2024-05-13T12:25:18Z</time>
      </trkpt>
      <trkpt lat="42.81593989" lon="13.55140540">
        <ele>553.00000</ele>
        <time>2024-05-13T12:25:21Z</time>
      </trkpt>
      <trkpt lat="42.81590997" lon="13.55161998">
        <ele>557.00000</ele>
        <time>2024-05-13T12:25:24Z</time>
      </trkpt>
      <trkpt lat="42.81584995" lon="13.55166994">
        <ele>561.00000</ele>
        <time>2024-05-13T12:25:26Z</time>
      </trkpt>
      <trkpt lat="42.81586999" lon="13.55167999">
        <ele>560.00000</ele>
        <time>2024-05-13T12:25:26Z</time>
      </trkpt>
      <trkpt lat="42.81588993" lon="13.55160992">
        <ele>558.00000</ele>
        <time>2024-05-13T12:25:27Z</time>
      </trkpt>
      <trkpt lat="42.81590997" lon="13.55162995">
        <ele>557.00000</ele>
        <time>2024-05-13T12:25:28Z</time>
      </trkpt>
      <trkpt lat="42.81587996" lon="13.55183992">
        <ele>562.00000</ele>
        <time>2024-05-13T12:25:31Z</time>
      </trkpt>
      <trkpt lat="42.81578994" lon="13.55190999">
        <ele>568.00000</ele>
        <time>2024-05-13T12:25:33Z</time>
      </trkpt>
      <trkpt lat="42.81574996" lon="13.55215994">
        <ele>576.00000</ele>
        <time>2024-05-13T12:25:37Z</time>
      </trkpt>
      <trkpt lat="42.81577996" lon="13.55225994">
        <ele>576.00000</ele>
        <time>2024-05-13T12:25:38Z</time>
      </trkpt>
      <trkpt lat="42.81596998" lon="13.55244996">
        <ele>570.00000</ele>
        <time>2024-05-13T12:25:43Z</time>
      </trkpt>
      <trkpt lat="42.81603997" lon="13.55262991">
        <ele>572.00000</ele>
        <time>2024-05-13T12:25:46Z</time>
      </trkpt>
      <trkpt lat="42.81608993" lon="13.55266998">
        <ele>571.00000</ele>
        <time>2024-05-13T12:25:47Z</time>
      </trkpt>
      <trkpt lat="42.81612999" lon="13.55285991">
        <ele>576.00000</ele>
        <time>2024-05-13T12:25:50Z</time>
      </trkpt>
      <trkpt lat="42.81623996" lon="13.55293996">
        <ele>574.00000</ele>
        <time>2024-05-13T12:25:53Z</time>
      </trkpt>
      <trkpt lat="42.81629998" lon="13.55301992">
        <ele>574.00000</ele>
        <time>2024-05-13T12:25:54Z</time>
      </trkpt>
      <trkpt lat="42.81631993" lon="13.55311992">
        <ele>578.00000</ele>
        <time>2024-05-13T12:25:56Z</time>
      </trkpt>
      <trkpt lat="42.81642998" lon="13.55321992">
        <ele>576.00000</ele>
        <time>2024-05-13T12:25:59Z</time>
      </trkpt>
      <trkpt lat="42.81647994" lon="13.55331991">
        <ele>577.00000</ele>
        <time>2024-05-13T12:26:00Z</time>
      </trkpt>
      <trkpt lat="42.81649997" lon="13.55342997">
        <ele>580.00000</ele>
        <time>2024-05-13T12:26:02Z</time>
      </trkpt>
      <trkpt lat="42.81658999" lon="13.55358998">
        <ele>580.00000</ele>
        <time>2024-05-13T12:26:05Z</time>
      </trkpt>
      <trkpt lat="42.81666995" lon="13.55391997">
        <ele>584.00000</ele>
        <time>2024-05-13T12:26:10Z</time>
      </trkpt>
      <trkpt lat="42.81667993" lon="13.55404998">
        <ele>586.00000</ele>
        <time>2024-05-13T12:26:12Z</time>
      </trkpt>
      <trkpt lat="42.81653995" lon="13.55420999">
        <ele>595.00000</ele>
        <time>2024-05-13T12:26:16Z</time>
      </trkpt>
      <trkpt lat="42.81649997" lon="13.55428995">
        <ele>597.00000</ele>
        <time>2024-05-13T12:26:17Z</time>
      </trkpt>
      <trkpt lat="42.81654993" lon="13.55443999">
        <ele>595.00000</ele>
        <time>2024-05-13T12:26:20Z</time>
      </trkpt>
      <trkpt lat="42.81645999" lon="13.55465993">
        <ele>600.00000</ele>
        <time>2024-05-13T12:26:23Z</time>
      </trkpt>
      <trkpt lat="42.81645999" lon="13.55470997">
        <ele>600.00000</ele>
        <time>2024-05-13T12:26:24Z</time>
      </trkpt>
      <trkpt lat="42.81639997" lon="13.55479999">
        <ele>602.00000</ele>
        <time>2024-05-13T12:26:26Z</time>
      </trkpt>
      <trkpt lat="42.81631993" lon="13.55485992">
        <ele>606.00000</ele>
        <time>2024-05-13T12:26:28Z</time>
      </trkpt>
      <trkpt lat="42.81622974" lon="13.55506016">
        <ele>609.00000</ele>
        <time>2024-05-13T12:26:31Z</time>
      </trkpt>
      <trkpt lat="42.81613997" lon="13.55525999">
        <ele>609.00000</ele>
        <time>2024-05-13T12:26:34Z</time>
      </trkpt>
      <trkpt lat="42.81601994" lon="13.55536996">
        <ele>611.00000</ele>
        <time>2024-05-13T12:26:37Z</time>
      </trkpt>
      <trkpt lat="42.81589983" lon="13.55556006">
        <ele>611.00000</ele>
        <time>2024-05-13T12:26:41Z</time>
      </trkpt>
      <trkpt lat="42.81577996" lon="13.55574999">
        <ele>610.00000</ele>
        <time>2024-05-13T12:26:45Z</time>
      </trkpt>
      <trkpt lat="42.81563990" lon="13.55586491">
        <ele>613.00000</ele>
        <time>2024-05-13T12:26:48Z</time>
      </trkpt>
      <trkpt lat="42.81549992" lon="13.55597999">
        <ele>616.00000</ele>
        <time>2024-05-13T12:26:51Z</time>
      </trkpt>
      <trkpt lat="42.81544997" lon="13.55604998">
        <ele>616.00000</ele>
        <time>2024-05-13T12:26:53Z</time>
      </trkpt>
      <trkpt lat="42.81544997" lon="13.55609994">
        <ele>615.00000</ele>
        <time>2024-05-13T12:26:53Z</time>
      </trkpt>
      <trkpt lat="42.81561995" lon="13.55620999">
        <ele>609.00000</ele>
        <time>2024-05-13T12:26:57Z</time>
      </trkpt>
      <trkpt lat="42.81569992" lon="13.55630999">
        <ele>605.00000</ele>
        <time>2024-05-13T12:26:59Z</time>
      </trkpt>
      <trkpt lat="42.81573998" lon="13.55643999">
        <ele>603.00000</ele>
        <time>2024-05-13T12:27:01Z</time>
      </trkpt>
      <trkpt lat="42.81559984" lon="13.55665516">
        <ele>606.00000</ele>
        <time>2024-05-13T12:27:06Z</time>
      </trkpt>
      <trkpt lat="42.81545994" lon="13.55686998">
        <ele>610.00000</ele>
        <time>2024-05-13T12:27:10Z</time>
      </trkpt>
      <trkpt lat="42.81525995" lon="13.55692991">
        <ele>616.00000</ele>
        <time>2024-05-13T12:27:14Z</time>
      </trkpt>
      <trkpt lat="42.81514981" lon="13.55712505">
        <ele>621.00000</ele>
        <time>2024-05-13T12:27:18Z</time>
      </trkpt>
      <trkpt lat="42.81503993" lon="13.55731992">
        <ele>624.00000</ele>
        <time>2024-05-13T12:27:21Z</time>
      </trkpt>
      <trkpt lat="42.81508997" lon="13.55752998">
        <ele>623.00000</ele>
        <time>2024-05-13T12:27:24Z</time>
      </trkpt>
      <trkpt lat="42.81521997" lon="13.55778998">
        <ele>622.00000</ele>
        <time>2024-05-13T12:27:29Z</time>
      </trkpt>
      <trkpt lat="42.81531997" lon="13.55791999">
        <ele>620.00000</ele>
        <time>2024-05-13T12:27:32Z</time>
      </trkpt>
      <trkpt lat="42.81533991" lon="13.55799995">
        <ele>620.00000</ele>
        <time>2024-05-13T12:27:33Z</time>
      </trkpt>
      <trkpt lat="42.81531997" lon="13.55808997">
        <ele>621.00000</ele>
        <time>2024-05-13T12:27:35Z</time>
      </trkpt>
      <trkpt lat="42.81528996" lon="13.55811998">
        <ele>621.00000</ele>
        <time>2024-05-13T12:27:35Z</time>
      </trkpt>
      <trkpt lat="42.81525995" lon="13.55810992">
        <ele>622.00000</ele>
        <time>2024-05-13T12:27:36Z</time>
      </trkpt>
      <trkpt lat="42.81509994" lon="13.55795997">
        <ele>625.00000</ele>
        <time>2024-05-13T12:27:40Z</time>
      </trkpt>
      <trkpt lat="42.81488997" lon="13.55788998">
        <ele>630.00000</ele>
        <time>2024-05-13T12:27:44Z</time>
      </trkpt>
      <trkpt lat="42.81468998" lon="13.55769996">
        <ele>635.00000</ele>
        <time>2024-05-13T12:27:49Z</time>
      </trkpt>
      <trkpt lat="42.81462997" lon="13.55756996">
        <ele>637.00000</ele>
        <time>2024-05-13T12:27:51Z</time>
      </trkpt>
      <trkpt lat="42.81462997" lon="13.55743995">
        <ele>637.00000</ele>
        <time>2024-05-13T12:27:53Z</time>
      </trkpt>
      <trkpt lat="42.81458999" lon="13.55732998">
        <ele>639.00000</ele>
        <time>2024-05-13T12:27:55Z</time>
      </trkpt>
      <trkpt lat="42.81459996" lon="13.55706998">
        <ele>639.00000</ele>
        <time>2024-05-13T12:27:59Z</time>
      </trkpt>
      <trkpt lat="42.81455998" lon="13.55690997">
        <ele>641.00000</ele>
        <time>2024-05-13T12:28:01Z</time>
      </trkpt>
      <trkpt lat="42.81446996" lon="13.55681994">
        <ele>644.00000</ele>
        <time>2024-05-13T12:28:03Z</time>
      </trkpt>
      <trkpt lat="42.81438999" lon="13.55680997">
        <ele>646.00000</ele>
        <time>2024-05-13T12:28:05Z</time>
      </trkpt>
      <trkpt lat="42.81429997" lon="13.55674996">
        <ele>648.00000</ele>
        <time>2024-05-13T12:28:07Z</time>
      </trkpt>
      <trkpt lat="42.81427994" lon="13.55666999">
        <ele>649.00000</ele>
        <time>2024-05-13T12:28:08Z</time>
      </trkpt>
      <trkpt lat="42.81428991" lon="13.55662993">
        <ele>648.00000</ele>
        <time>2024-05-13T12:28:09Z</time>
      </trkpt>
      <trkpt lat="42.81442997" lon="13.55647997">
        <ele>644.00000</ele>
        <time>2024-05-13T12:28:13Z</time>
      </trkpt>
      <trkpt lat="42.81445998" lon="13.55639993">
        <ele>643.00000</ele>
        <time>2024-05-13T12:28:14Z</time>
      </trkpt>
      <trkpt lat="42.81445998" lon="13.55625995">
        <ele>643.00000</ele>
        <time>2024-05-13T12:28:16Z</time>
      </trkpt>
      <trkpt lat="42.81430995" lon="13.55612492">
        <ele>649.00000</ele>
        <time>2024-05-13T12:28:20Z</time>
      </trkpt>
      <trkpt lat="42.81415999" lon="13.55598997">
        <ele>655.00000</ele>
        <time>2024-05-13T12:28:23Z</time>
      </trkpt>
      <trkpt lat="42.81412999" lon="13.55589995">
        <ele>656.00000</ele>
        <time>2024-05-13T12:28:25Z</time>
      </trkpt>
      <trkpt lat="42.81413996" lon="13.55587991">
        <ele>656.00000</ele>
        <time>2024-05-13T12:28:25Z</time>
      </trkpt>
      <trkpt lat="42.81427994" lon="13.55586994">
        <ele>652.00000</ele>
        <time>2024-05-13T12:28:28Z</time>
      </trkpt>
      <trkpt lat="42.81436996" lon="13.55581998">
        <ele>649.00000</ele>
        <time>2024-05-13T12:28:30Z</time>
      </trkpt>
      <trkpt lat="42.81443995" lon="13.55573994">
        <ele>648.00000</ele>
        <time>2024-05-13T12:28:32Z</time>
      </trkpt>
      <trkpt lat="42.81450994" lon="13.55543995">
        <ele>652.00000</ele>
        <time>2024-05-13T12:28:36Z</time>
      </trkpt>
      <trkpt lat="42.81461999" lon="13.55517994">
        <ele>656.00000</ele>
        <time>2024-05-13T12:28:41Z</time>
      </trkpt>
      <trkpt lat="42.81468998" lon="13.55508992">
        <ele>657.00000</ele>
        <time>2024-05-13T12:28:42Z</time>
      </trkpt>
      <trkpt lat="42.81471999" lon="13.55499998">
        <ele>659.00000</ele>
        <time>2024-05-13T12:28:44Z</time>
      </trkpt>
      <trkpt lat="42.81482996" lon="13.55485992">
        <ele>657.00000</ele>
        <time>2024-05-13T12:28:47Z</time>
      </trkpt>
      <trkpt lat="42.81489995" lon="13.55464995">
        <ele>657.00000</ele>
        <time>2024-05-13T12:28:50Z</time>
      </trkpt>
      <trkpt lat="42.81488997" lon="13.55455993">
        <ele>658.00000</ele>
        <time>2024-05-13T12:28:52Z</time>
      </trkpt>
      <trkpt lat="42.81480993" lon="13.55438995">
        <ele>660.00000</ele>
        <time>2024-05-13T12:28:55Z</time>
      </trkpt>
      <trkpt lat="42.81468478" lon="13.55420479">
        <ele>662.00000</ele>
        <time>2024-05-13T12:28:58Z</time>
      </trkpt>
      <trkpt lat="42.81455998" lon="13.55401997">
        <ele>661.00000</ele>
        <time>2024-05-13T12:29:02Z</time>
      </trkpt>
      <trkpt lat="42.81444992" lon="13.55393992">
        <ele>661.00000</ele>
        <time>2024-05-13T12:29:05Z</time>
      </trkpt>
      <trkpt lat="42.81425999" lon="13.55396993">
        <ele>663.00000</ele>
        <time>2024-05-13T12:29:08Z</time>
      </trkpt>
      <trkpt lat="42.81404994" lon="13.55389994">
        <ele>660.00000</ele>
        <time>2024-05-13T12:29:13Z</time>
      </trkpt>
      <trkpt lat="42.81390996" lon="13.55381998">
        <ele>657.00000</ele>
        <time>2024-05-13T12:29:16Z</time>
      </trkpt>
      <trkpt lat="42.81380997" lon="13.55400991">
        <ele>663.00000</ele>
        <time>2024-05-13T12:29:19Z</time>
      </trkpt>
      <trkpt lat="42.81371994" lon="13.55408996">
        <ele>665.00000</ele>
        <time>2024-05-13T12:29:21Z</time>
      </trkpt>
      <trkpt lat="42.81354501" lon="13.55416489">
        <ele>665.00000</ele>
        <time>2024-05-13T12:29:25Z</time>
      </trkpt>
      <trkpt lat="42.81336992" lon="13.55423999">
        <ele>665.00000</ele>
        <time>2024-05-13T12:29:29Z</time>
      </trkpt>
      <trkpt lat="42.81324997" lon="13.55433999">
        <ele>666.00000</ele>
        <time>2024-05-13T12:29:31Z</time>
      </trkpt>
      <trkpt lat="42.81312994" lon="13.55453998">
        <ele>669.00000</ele>
        <time>2024-05-13T12:29:35Z</time>
      </trkpt>
      <trkpt lat="42.81301997" lon="13.55491993">
        <ele>674.00000</ele>
        <time>2024-05-13T12:29:41Z</time>
      </trkpt>
      <trkpt lat="42.81286993" lon="13.55519997">
        <ele>675.00000</ele>
        <time>2024-05-13T12:29:46Z</time>
      </trkpt>
      <trkpt lat="42.81277991" lon="13.55526996">
        <ele>674.00000</ele>
        <time>2024-05-13T12:29:48Z</time>
      </trkpt>
      <trkpt lat="42.81259501" lon="13.55534984">
        <ele>673.00000</ele>
        <time>2024-05-13T12:29:52Z</time>
      </trkpt>
      <trkpt lat="42.81240994" lon="13.55542997">
        <ele>673.00000</ele>
        <time>2024-05-13T12:29:56Z</time>
      </trkpt>
      <trkpt lat="42.81234992" lon="13.55548999">
        <ele>674.00000</ele>
        <time>2024-05-13T12:29:58Z</time>
      </trkpt>
      <trkpt lat="42.81228999" lon="13.55550994">
        <ele>674.00000</ele>
        <time>2024-05-13T12:29:59Z</time>
      </trkpt>
      <trkpt lat="42.81216996" lon="13.55547993">
        <ele>672.00000</ele>
        <time>2024-05-13T12:30:01Z</time>
      </trkpt>
      <trkpt lat="42.81211992" lon="13.55548999">
        <ele>673.00000</ele>
        <time>2024-05-13T12:30:02Z</time>
      </trkpt>
      <trkpt lat="42.81206997" lon="13.55557993">
        <ele>675.00000</ele>
        <time>2024-05-13T12:30:04Z</time>
      </trkpt>
      <trkpt lat="42.81207994" lon="13.55561999">
        <ele>677.00000</ele>
        <time>2024-05-13T12:30:05Z</time>
      </trkpt>
      <trkpt lat="42.81215999" lon="13.55566995">
        <ele>679.00000</ele>
        <time>2024-05-13T12:30:06Z</time>
      </trkpt>
      <trkpt lat="42.81233995" lon="13.55569995">
        <ele>681.00000</ele>
        <time>2024-05-13T12:30:10Z</time>
      </trkpt>
      <trkpt lat="42.81242997" lon="13.55577992">
        <ele>685.00000</ele>
        <time>2024-05-13T12:30:12Z</time>
      </trkpt>
      <trkpt lat="42.81256995" lon="13.55578998">
        <ele>685.00000</ele>
        <time>2024-05-13T12:30:15Z</time>
      </trkpt>
      <trkpt lat="42.81268998" lon="13.55589995">
        <ele>687.00000</ele>
        <time>2024-05-13T12:30:18Z</time>
      </trkpt>
      <trkpt lat="42.81271998" lon="13.55597999">
        <ele>688.00000</ele>
        <time>2024-05-13T12:30:19Z</time>
      </trkpt>
      <trkpt lat="42.81266994" lon="13.55631996">
        <ele>692.00000</ele>
        <time>2024-05-13T12:30:24Z</time>
      </trkpt>
      <trkpt lat="42.81267992" lon="13.55659992">
        <ele>694.00000</ele>
        <time>2024-05-13T12:30:28Z</time>
      </trkpt>
      <trkpt lat="42.81261999" lon="13.55695992">
        <ele>699.00000</ele>
        <time>2024-05-13T12:30:34Z</time>
      </trkpt>
      <trkpt lat="42.81256995" lon="13.55711993">
        <ele>702.00000</ele>
        <time>2024-05-13T12:30:36Z</time>
      </trkpt>
      <trkpt lat="42.81257992" lon="13.55716997">
        <ele>703.00000</ele>
        <time>2024-05-13T12:30:37Z</time>
      </trkpt>
      <trkpt lat="42.81264999" lon="13.55725999">
        <ele>702.00000</ele>
        <time>2024-05-13T12:30:39Z</time>
      </trkpt>
      <trkpt lat="42.81268998" lon="13.55759996">
        <ele>704.00000</ele>
        <time>2024-05-13T12:30:44Z</time>
      </trkpt>
      <trkpt lat="42.81275996" lon="13.55771999">
        <ele>703.00000</ele>
        <time>2024-05-13T12:30:46Z</time>
      </trkpt>
      <trkpt lat="42.81279995" lon="13.55802996">
        <ele>706.00000</ele>
        <time>2024-05-13T12:30:51Z</time>
      </trkpt>
      <trkpt lat="42.81274999" lon="13.55811998">
        <ele>708.00000</ele>
        <time>2024-05-13T12:30:53Z</time>
      </trkpt>
      <trkpt lat="42.81278997" lon="13.55832994">
        <ele>710.00000</ele>
        <time>2024-05-13T12:30:56Z</time>
      </trkpt>
      <trkpt lat="42.81285996" lon="13.55840999">
        <ele>710.00000</ele>
        <time>2024-05-13T12:30:58Z</time>
      </trkpt>
      <trkpt lat="42.81302995" lon="13.55874996">
        <ele>709.00000</ele>
        <time>2024-05-13T12:31:04Z</time>
      </trkpt>
      <trkpt lat="42.81301997" lon="13.55880998">
        <ele>710.00000</ele>
        <time>2024-05-13T12:31:05Z</time>
      </trkpt>
      <trkpt lat="42.81279986" lon="13.55905498">
        <ele>716.00000</ele>
        <time>2024-05-13T12:31:10Z</time>
      </trkpt>
      <trkpt lat="42.81257992" lon="13.55929998">
        <ele>724.00000</ele>
        <time>2024-05-13T12:31:16Z</time>
      </trkpt>
      <trkpt lat="42.81255997" lon="13.55947994">
        <ele>726.00000</ele>
        <time>2024-05-13T12:31:19Z</time>
      </trkpt>
      <trkpt lat="42.81261999" lon="13.55964993">
        <ele>728.00000</ele>
        <time>2024-05-13T12:31:22Z</time>
      </trkpt>
      <trkpt lat="42.81280992" lon="13.55982997">
        <ele>728.00000</ele>
        <time>2024-05-13T12:31:26Z</time>
      </trkpt>
      <trkpt lat="42.81281998" lon="13.55990993">
        <ele>730.00000</ele>
        <time>2024-05-13T12:31:27Z</time>
      </trkpt>
      <trkpt lat="42.81289994" lon="13.56003994">
        <ele>732.00000</ele>
        <time>2024-05-13T12:31:30Z</time>
      </trkpt>
      <trkpt lat="42.81304998" lon="13.56014999">
        <ele>733.00000</ele>
        <time>2024-05-13T12:31:33Z</time>
      </trkpt>
      <trkpt lat="42.81310999" lon="13.56028997">
        <ele>735.00000</ele>
        <time>2024-05-13T12:31:36Z</time>
      </trkpt>
      <trkpt lat="42.81310999" lon="13.56038996">
        <ele>736.00000</ele>
        <time>2024-05-13T12:31:37Z</time>
      </trkpt>
      <trkpt lat="42.81333999" lon="13.56063991">
        <ele>738.00000</ele>
        <time>2024-05-13T12:31:43Z</time>
      </trkpt>
      <trkpt lat="42.81330998" lon="13.56073999">
        <ele>741.00000</ele>
        <time>2024-05-13T12:31:45Z</time>
      </trkpt>
      <trkpt lat="42.81353998" lon="13.56087997">
        <ele>739.00000</ele>
        <time>2024-05-13T12:31:50Z</time>
      </trkpt>
      <trkpt lat="42.81369999" lon="13.56106999">
        <ele>741.00000</ele>
        <time>2024-05-13T12:31:54Z</time>
      </trkpt>
      <trkpt lat="42.81380997" lon="13.56114995">
        <ele>740.00000</ele>
        <time>2024-05-13T12:31:56Z</time>
      </trkpt>
      <trkpt lat="42.81385992" lon="13.56122992">
        <ele>742.00000</ele>
        <time>2024-05-13T12:31:58Z</time>
      </trkpt>
      <trkpt lat="42.81394994" lon="13.56126998">
        <ele>742.00000</ele>
        <time>2024-05-13T12:32:00Z</time>
      </trkpt>
      <trkpt lat="42.81400996" lon="13.56133997">
        <ele>743.00000</ele>
        <time>2024-05-13T12:32:01Z</time>
      </trkpt>
      <trkpt lat="42.81414994" lon="13.56137995">
        <ele>742.00000</ele>
        <time>2024-05-13T12:32:04Z</time>
      </trkpt>
      <trkpt lat="42.81421992" lon="13.56142999">
        <ele>743.00000</ele>
        <time>2024-05-13T12:32:06Z</time>
      </trkpt>
      <trkpt lat="42.81430995" lon="13.56151993">
        <ele>745.00000</ele>
        <time>2024-05-13T12:32:08Z</time>
      </trkpt>
      <trkpt lat="42.81442997" lon="13.56169997">
        <ele>750.00000</ele>
        <time>2024-05-13T12:32:12Z</time>
      </trkpt>
      <trkpt lat="42.81461656" lon="13.56184657">
        <ele>752.00000</ele>
        <time>2024-05-13T12:32:16Z</time>
      </trkpt>
      <trkpt lat="42.81480314" lon="13.56199317">
        <ele>755.00000</ele>
        <time>2024-05-13T12:32:20Z</time>
      </trkpt>
      <trkpt lat="42.81498997" lon="13.56213994">
        <ele>760.00000</ele>
        <time>2024-05-13T12:32:25Z</time>
      </trkpt>
      <trkpt lat="42.81511997" lon="13.56227992">
        <ele>764.00000</ele>
        <time>2024-05-13T12:32:28Z</time>
      </trkpt>
      <trkpt lat="42.81527479" lon="13.56237983">
        <ele>765.00000</ele>
        <time>2024-05-13T12:32:31Z</time>
      </trkpt>
      <trkpt lat="42.81542994" lon="13.56247999">
        <ele>764.00000</ele>
        <time>2024-05-13T12:32:35Z</time>
      </trkpt>
      <trkpt lat="42.81548995" lon="13.56253992">
        <ele>764.00000</ele>
        <time>2024-05-13T12:32:36Z</time>
      </trkpt>
      <trkpt lat="42.81548995" lon="13.56257999">
        <ele>765.00000</ele>
        <time>2024-05-13T12:32:37Z</time>
      </trkpt>
      <trkpt lat="42.81546992" lon="13.56261997">
        <ele>767.00000</ele>
        <time>2024-05-13T12:32:38Z</time>
      </trkpt>
      <trkpt lat="42.81539993" lon="13.56263992">
        <ele>768.00000</ele>
        <time>2024-05-13T12:32:39Z</time>
      </trkpt>
      <trkpt lat="42.81535995" lon="13.56259994">
        <ele>768.00000</ele>
        <time>2024-05-13T12:32:40Z</time>
      </trkpt>
      <trkpt lat="42.81525995" lon="13.56264998">
        <ele>770.00000</ele>
        <time>2024-05-13T12:32:42Z</time>
      </trkpt>
      <trkpt lat="42.81515995" lon="13.56250992">
        <ele>769.00000</ele>
        <time>2024-05-13T12:32:45Z</time>
      </trkpt>
      <trkpt lat="42.81500992" lon="13.56243993">
        <ele>770.00000</ele>
        <time>2024-05-13T12:32:48Z</time>
      </trkpt>
      <trkpt lat="42.81489995" lon="13.56242995">
        <ele>771.00000</ele>
        <time>2024-05-13T12:32:50Z</time>
      </trkpt>
      <trkpt lat="42.81466995" lon="13.56233993">
        <ele>771.00000</ele>
        <time>2024-05-13T12:32:55Z</time>
      </trkpt>
      <trkpt lat="42.81443995" lon="13.56230992">
        <ele>779.00000</ele>
        <time>2024-05-13T12:33:00Z</time>
      </trkpt>
      <trkpt lat="42.81439997" lon="13.56226994">
        <ele>779.00000</ele>
        <time>2024-05-13T12:33:01Z</time>
      </trkpt>
      <trkpt lat="42.81419511" lon="13.56221496">
        <ele>782.00000</ele>
        <time>2024-05-13T12:33:05Z</time>
      </trkpt>
      <trkpt lat="42.81398992" lon="13.56215997">
        <ele>785.00000</ele>
        <time>2024-05-13T12:33:09Z</time>
      </trkpt>
      <trkpt lat="42.81385992" lon="13.56218998">
        <ele>789.00000</ele>
        <time>2024-05-13T12:33:12Z</time>
      </trkpt>
      <trkpt lat="42.81363680" lon="13.56209333">
        <ele>786.00000</ele>
        <time>2024-05-13T12:33:16Z</time>
      </trkpt>
      <trkpt lat="42.81341367" lon="13.56199678">
        <ele>784.00000</ele>
        <time>2024-05-13T12:33:21Z</time>
      </trkpt>
      <trkpt lat="42.81318996" lon="13.56189996">
        <ele>782.00000</ele>
        <time>2024-05-13T12:33:26Z</time>
      </trkpt>
      <trkpt lat="42.81298510" lon="13.56187993">
        <ele>786.00000</ele>
        <time>2024-05-13T12:33:30Z</time>
      </trkpt>
      <trkpt lat="42.81277991" lon="13.56185998">
        <ele>792.00000</ele>
        <time>2024-05-13T12:33:34Z</time>
      </trkpt>
      <trkpt lat="42.81257992" lon="13.56176996">
        <ele>795.00000</ele>
        <time>2024-05-13T12:33:38Z</time>
      </trkpt>
      <trkpt lat="42.81245998" lon="13.56167994">
        <ele>795.00000</ele>
        <time>2024-05-13T12:33:41Z</time>
      </trkpt>
      <trkpt lat="42.81226510" lon="13.56162001">
        <ele>798.00000</ele>
        <time>2024-05-13T12:33:45Z</time>
      </trkpt>
      <trkpt lat="42.81206997" lon="13.56155999">
        <ele>800.00000</ele>
        <time>2024-05-13T12:33:49Z</time>
      </trkpt>
      <trkpt lat="42.81182999" lon="13.56162998">
        <ele>809.00000</ele>
        <time>2024-05-13T12:33:54Z</time>
      </trkpt>
      <trkpt lat="42.81164995" lon="13.56151993">
        <ele>809.00000</ele>
        <time>2024-05-13T12:33:58Z</time>
      </trkpt>
      <trkpt lat="42.81152992" lon="13.56148992">
        <ele>810.00000</ele>
        <time>2024-05-13T12:34:00Z</time>
      </trkpt>
      <trkpt lat="42.81127997" lon="13.56148992">
        <ele>815.00000</ele>
        <time>2024-05-13T12:34:05Z</time>
      </trkpt>
      <trkpt lat="42.81107998" lon="13.56139998">
        <ele>815.00000</ele>
        <time>2024-05-13T12:34:09Z</time>
      </trkpt>
      <trkpt lat="42.81096993" lon="13.56131994">
        <ele>816.00000</ele>
        <time>2024-05-13T12:34:12Z</time>
      </trkpt>
      <trkpt lat="42.81089994" lon="13.56121994">
        <ele>815.00000</ele>
        <time>2024-05-13T12:34:14Z</time>
      </trkpt>
      <trkpt lat="42.81065996" lon="13.56097997">
        <ele>816.00000</ele>
        <time>2024-05-13T12:34:20Z</time>
      </trkpt>
      <trkpt lat="42.81044991" lon="13.56088995">
        <ele>817.00000</ele>
        <time>2024-05-13T12:34:24Z</time>
      </trkpt>
      <trkpt lat="42.81039996" lon="13.56088995">
        <ele>817.00000</ele>
        <time>2024-05-13T12:34:25Z</time>
      </trkpt>
      <trkpt lat="42.81034992" lon="13.56096999">
        <ele>819.00000</ele>
        <time>2024-05-13T12:34:27Z</time>
      </trkpt>
      <trkpt lat="42.81032997" lon="13.56104996">
        <ele>820.00000</ele>
        <time>2024-05-13T12:34:28Z</time>
      </trkpt>
      <trkpt lat="42.81035997" lon="13.56110997">
        <ele>821.00000</ele>
        <time>2024-05-13T12:34:29Z</time>
      </trkpt>
      <trkpt lat="42.81049987" lon="13.56120988">
        <ele>822.00000</ele>
        <time>2024-05-13T12:34:32Z</time>
      </trkpt>
      <trkpt lat="42.81063993" lon="13.56130996">
        <ele>822.00000</ele>
        <time>2024-05-13T12:34:36Z</time>
      </trkpt>
      <trkpt lat="42.81066994" lon="13.56133997">
        <ele>822.00000</ele>
        <time>2024-05-13T12:34:36Z</time>
      </trkpt>
      <trkpt lat="42.81067991" lon="13.56139998">
        <ele>823.00000</ele>
        <time>2024-05-13T12:34:37Z</time>
      </trkpt>
      <trkpt lat="42.81072995" lon="13.56142999">
        <ele>823.00000</ele>
        <time>2024-05-13T12:34:38Z</time>
      </trkpt>
      <trkpt lat="42.81080991" lon="13.56167994">
        <ele>828.00000</ele>
        <time>2024-05-13T12:34:42Z</time>
      </trkpt>
      <trkpt lat="42.81101477" lon="13.56180483">
        <ele>830.00000</ele>
        <time>2024-05-13T12:34:47Z</time>
      </trkpt>
      <trkpt lat="42.81121996" lon="13.56192997">
        <ele>832.00000</ele>
        <time>2024-05-13T12:34:51Z</time>
      </trkpt>
      <trkpt lat="42.81131995" lon="13.56204992">
        <ele>835.00000</ele>
        <time>2024-05-13T12:34:54Z</time>
      </trkpt>
      <trkpt lat="42.81145490" lon="13.56216986">
        <ele>837.00000</ele>
        <time>2024-05-13T12:34:57Z</time>
      </trkpt>
      <trkpt lat="42.81158993" lon="13.56228997">
        <ele>838.00000</ele>
        <time>2024-05-13T12:35:00Z</time>
      </trkpt>
      <trkpt lat="42.81187995" lon="13.56238997">
        <ele>836.00000</ele>
        <time>2024-05-13T12:35:06Z</time>
      </trkpt>
      <trkpt lat="42.81202487" lon="13.56250489">
        <ele>839.00000</ele>
        <time>2024-05-13T12:35:10Z</time>
      </trkpt>
      <trkpt lat="42.81216996" lon="13.56261997">
        <ele>841.00000</ele>
        <time>2024-05-13T12:35:13Z</time>
      </trkpt>
      <trkpt lat="42.81243994" lon="13.56278995">
        <ele>840.00000</ele>
        <time>2024-05-13T12:35:19Z</time>
      </trkpt>
      <trkpt lat="42.81252996" lon="13.56288995">
        <ele>841.00000</ele>
        <time>2024-05-13T12:35:21Z</time>
      </trkpt>
      <trkpt lat="42.81267992" lon="13.56298995">
        <ele>839.00000</ele>
        <time>2024-05-13T12:35:25Z</time>
      </trkpt>
      <trkpt lat="42.81279995" lon="13.56318994">
        <ele>843.00000</ele>
        <time>2024-05-13T12:35:29Z</time>
      </trkpt>
      <trkpt lat="42.81291997" lon="13.56327996">
        <ele>843.00000</ele>
        <time>2024-05-13T12:35:31Z</time>
      </trkpt>
      <trkpt lat="42.81304495" lon="13.56341491">
        <ele>845.00000</ele>
        <time>2024-05-13T12:35:34Z</time>
      </trkpt>
      <trkpt lat="42.81316992" lon="13.56354994">
        <ele>849.00000</ele>
        <time>2024-05-13T12:35:38Z</time>
      </trkpt>
      <trkpt lat="42.81342993" lon="13.56371993">
        <ele>851.00000</ele>
        <time>2024-05-13T12:35:43Z</time>
      </trkpt>
      <trkpt lat="42.81348994" lon="13.56379997">
        <ele>853.00000</ele>
        <time>2024-05-13T12:35:45Z</time>
      </trkpt>
      <trkpt lat="42.81361995" lon="13.56413994">
        <ele>860.00000</ele>
        <time>2024-05-13T12:35:51Z</time>
      </trkpt>
      <trkpt lat="42.81365498" lon="13.56440054">
        <ele>864.00000</ele>
        <time>2024-05-13T12:35:55Z</time>
      </trkpt>
      <trkpt lat="42.81368994" lon="13.56465996">
        <ele>867.00000</ele>
        <time>2024-05-13T12:35:59Z</time>
      </trkpt>
      <trkpt lat="42.81385992" lon="13.56477999">
        <ele>864.00000</ele>
        <time>2024-05-13T12:36:02Z</time>
      </trkpt>
      <trkpt lat="42.81387995" lon="13.56520595">
        <ele>869.00000</ele>
        <time>2024-05-13T12:36:09Z</time>
      </trkpt>
      <trkpt lat="42.81389999" lon="13.56562991">
        <ele>870.00000</ele>
        <time>2024-05-13T12:36:15Z</time>
      </trkpt>
      <trkpt lat="42.81394994" lon="13.56583996">
        <ele>870.00000</ele>
        <time>2024-05-13T12:36:18Z</time>
      </trkpt>
      <trkpt lat="42.81397995" lon="13.56586997">
        <ele>870.00000</ele>
        <time>2024-05-13T12:36:19Z</time>
      </trkpt>
      <trkpt lat="42.81401993" lon="13.56599997">
        <ele>869.00000</ele>
        <time>2024-05-13T12:36:21Z</time>
      </trkpt>
      <trkpt lat="42.81395992" lon="13.56614992">
        <ele>871.00000</ele>
        <time>2024-05-13T12:36:23Z</time>
      </trkpt>
      <trkpt lat="42.81401993" lon="13.56638998">
        <ele>871.00000</ele>
        <time>2024-05-13T12:36:27Z</time>
      </trkpt>
      <trkpt lat="42.81402999" lon="13.56656994">
        <ele>871.00000</ele>
        <time>2024-05-13T12:36:30Z</time>
      </trkpt>
      <trkpt lat="42.81397995" lon="13.56679994">
        <ele>873.00000</ele>
        <time>2024-05-13T12:36:33Z</time>
      </trkpt>
      <trkpt lat="42.81400996" lon="13.56699993">
        <ele>872.00000</ele>
        <time>2024-05-13T12:36:36Z</time>
      </trkpt>
      <trkpt lat="42.81393477" lon="13.56734560">
        <ele>875.00000</ele>
        <time>2024-05-13T12:36:42Z</time>
      </trkpt>
      <trkpt lat="42.81385992" lon="13.56768993">
        <ele>878.00000</ele>
        <time>2024-05-13T12:36:47Z</time>
      </trkpt>
      <trkpt lat="42.81391994" lon="13.56782999">
        <ele>876.00000</ele>
        <time>2024-05-13T12:36:49Z</time>
      </trkpt>
      <trkpt lat="42.81394994" lon="13.56798992">
        <ele>875.00000</ele>
        <time>2024-05-13T12:36:52Z</time>
      </trkpt>
      <trkpt lat="42.81390996" lon="13.56815999">
        <ele>876.00000</ele>
        <time>2024-05-13T12:36:54Z</time>
      </trkpt>
      <trkpt lat="42.81390996" lon="13.56823995">
        <ele>876.00000</ele>
        <time>2024-05-13T12:36:56Z</time>
      </trkpt>
      <trkpt lat="42.81394994" lon="13.56827993">
        <ele>874.00000</ele>
        <time>2024-05-13T12:36:57Z</time>
      </trkpt>
      <trkpt lat="42.81393997" lon="13.56851999">
        <ele>873.00000</ele>
        <time>2024-05-13T12:37:00Z</time>
      </trkpt>
      <trkpt lat="42.81376998" lon="13.56882995">
        <ele>878.00000</ele>
        <time>2024-05-13T12:37:06Z</time>
      </trkpt>
      <trkpt lat="42.81375993" lon="13.56904998">
        <ele>879.00000</ele>
        <time>2024-05-13T12:37:09Z</time>
      </trkpt>
      <trkpt lat="42.81377493" lon="13.56929046">
        <ele>880.00000</ele>
        <time>2024-05-13T12:37:13Z</time>
      </trkpt>
      <trkpt lat="42.81378993" lon="13.56952993">
        <ele>881.00000</ele>
        <time>2024-05-13T12:37:16Z</time>
      </trkpt>
      <trkpt lat="42.81376998" lon="13.56962992">
        <ele>882.00000</ele>
        <time>2024-05-13T12:37:18Z</time>
      </trkpt>
      <trkpt lat="42.81383997" lon="13.56979999">
        <ele>881.00000</ele>
        <time>2024-05-13T12:37:21Z</time>
      </trkpt>
      <trkpt lat="42.81392999" lon="13.56987996">
        <ele>878.00000</ele>
        <time>2024-05-13T12:37:23Z</time>
      </trkpt>
      <trkpt lat="42.81401993" lon="13.57008992">
        <ele>877.00000</ele>
        <time>2024-05-13T12:37:26Z</time>
      </trkpt>
      <trkpt lat="42.81393997" lon="13.57035999">
        <ele>880.00000</ele>
        <time>2024-05-13T12:37:31Z</time>
      </trkpt>
      <trkpt lat="42.81380477" lon="13.57069049">
        <ele>884.00000</ele>
        <time>2024-05-13T12:37:36Z</time>
      </trkpt>
      <trkpt lat="42.81366999" lon="13.57101998">
        <ele>885.00000</ele>
        <time>2024-05-13T12:37:42Z</time>
      </trkpt>
      <trkpt lat="42.81369999" lon="13.57108997">
        <ele>885.00000</ele>
        <time>2024-05-13T12:37:43Z</time>
      </trkpt>
      <trkpt lat="42.81383997" lon="13.57112995">
        <ele>884.00000</ele>
        <time>2024-05-13T12:37:46Z</time>
      </trkpt>
      <trkpt lat="42.81393997" lon="13.57112995">
        <ele>884.00000</ele>
        <time>2024-05-13T12:37:48Z</time>
      </trkpt>
      <trkpt lat="42.81411993" lon="13.57129993">
        <ele>888.00000</ele>
        <time>2024-05-13T12:37:52Z</time>
      </trkpt>
      <trkpt lat="42.81434993" lon="13.57140999">
        <ele>889.00000</ele>
        <time>2024-05-13T12:37:57Z</time>
      </trkpt>
      <trkpt lat="42.81439997" lon="13.57145994">
        <ele>890.00000</ele>
        <time>2024-05-13T12:37:58Z</time>
      </trkpt>
      <trkpt lat="42.81450994" lon="13.57162993">
        <ele>891.00000</ele>
        <time>2024-05-13T12:38:02Z</time>
      </trkpt>
      <trkpt lat="42.81454992" lon="13.57173998">
        <ele>892.00000</ele>
        <time>2024-05-13T12:38:03Z</time>
      </trkpt>
      <trkpt lat="42.81470993" lon="13.57190997">
        <ele>890.00000</ele>
        <time>2024-05-13T12:38:07Z</time>
      </trkpt>
      <trkpt lat="42.81487992" lon="13.57213997">
        <ele>890.00000</ele>
        <time>2024-05-13T12:38:12Z</time>
      </trkpt>
      <trkpt lat="42.81499005" lon="13.57237525">
        <ele>891.00000</ele>
        <time>2024-05-13T12:38:16Z</time>
      </trkpt>
      <trkpt lat="42.81509994" lon="13.57260994">
        <ele>891.00000</ele>
        <time>2024-05-13T12:38:20Z</time>
      </trkpt>
      <trkpt lat="42.81514998" lon="13.57287992">
        <ele>892.00000</ele>
        <time>2024-05-13T12:38:25Z</time>
      </trkpt>
      <trkpt lat="42.81534503" lon="13.57315510">
        <ele>891.00000</ele>
        <time>2024-05-13T12:38:30Z</time>
      </trkpt>
      <trkpt lat="42.81553999" lon="13.57342994">
        <ele>891.00000</ele>
        <time>2024-05-13T12:38:36Z</time>
      </trkpt>
      <trkpt lat="42.81570981" lon="13.57352483">
        <ele>892.00000</ele>
        <time>2024-05-13T12:38:39Z</time>
      </trkpt>
      <trkpt lat="42.81587996" lon="13.57361996">
        <ele>895.00000</ele>
        <time>2024-05-13T12:38:43Z</time>
      </trkpt>
      <trkpt lat="42.81598993" lon="13.57363999">
        <ele>895.00000</ele>
        <time>2024-05-13T12:38:45Z</time>
      </trkpt>
      <trkpt lat="42.81609999" lon="13.57372993">
        <ele>898.00000</ele>
        <time>2024-05-13T12:38:48Z</time>
      </trkpt>
      <trkpt lat="42.81634993" lon="13.57380998">
        <ele>898.00000</ele>
        <time>2024-05-13T12:38:53Z</time>
      </trkpt>
      <trkpt lat="42.81654993" lon="13.57404995">
        <ele>901.00000</ele>
        <time>2024-05-13T12:38:58Z</time>
      </trkpt>
      <trkpt lat="42.81650994" lon="13.57404995">
        <ele>901.00000</ele>
        <time>2024-05-13T12:38:59Z</time>
      </trkpt>
      <trkpt lat="42.81638992" lon="13.57394996">
        <ele>900.00000</ele>
        <time>2024-05-13T12:39:02Z</time>
      </trkpt>
      <trkpt lat="42.81629998" lon="13.57392992">
        <ele>900.00000</ele>
        <time>2024-05-13T12:39:04Z</time>
      </trkpt>
      <trkpt lat="42.81615992" lon="13.57393998">
        <ele>901.00000</ele>
        <time>2024-05-13T12:39:07Z</time>
      </trkpt>
      <trkpt lat="42.81605992" lon="13.57398994">
        <ele>901.00000</ele>
        <time>2024-05-13T12:39:09Z</time>
      </trkpt>
      <trkpt lat="42.81585993" lon="13.57403998">
        <ele>901.00000</ele>
        <time>2024-05-13T12:39:13Z</time>
      </trkpt>
      <trkpt lat="42.81577996" lon="13.57409999">
        <ele>902.00000</ele>
        <time>2024-05-13T12:39:15Z</time>
      </trkpt>
      <trkpt lat="42.81570998" lon="13.57411994">
        <ele>901.00000</ele>
        <time>2024-05-13T12:39:16Z</time>
      </trkpt>
      <trkpt lat="42.81554996" lon="13.57427995">
        <ele>904.00000</ele>
        <time>2024-05-13T12:39:20Z</time>
      </trkpt>
      <trkpt lat="42.81540496" lon="13.57438481">
        <ele>907.00000</ele>
        <time>2024-05-13T12:39:23Z</time>
      </trkpt>
      <trkpt lat="42.81525995" lon="13.57448992">
        <ele>910.00000</ele>
        <time>2024-05-13T12:39:27Z</time>
      </trkpt>
      <trkpt lat="42.81506993" lon="13.57457994">
        <ele>913.00000</ele>
        <time>2024-05-13T12:39:31Z</time>
      </trkpt>
      <trkpt lat="42.81500992" lon="13.57456997">
        <ele>913.00000</ele>
        <time>2024-05-13T12:39:32Z</time>
      </trkpt>
      <trkpt lat="42.81483993" lon="13.57466996">
        <ele>915.00000</ele>
        <time>2024-05-13T12:39:36Z</time>
      </trkpt>
      <trkpt lat="42.81463994" lon="13.57472998">
        <ele>917.00000</ele>
        <time>2024-05-13T12:39:40Z</time>
      </trkpt>
      <trkpt lat="42.81447507" lon="13.57474992">
        <ele>917.00000</ele>
        <time>2024-05-13T12:39:43Z</time>
      </trkpt>
      <trkpt lat="42.81430995" lon="13.57476996">
        <ele>917.00000</ele>
        <time>2024-05-13T12:39:46Z</time>
      </trkpt>
      <trkpt lat="42.81419998" lon="13.57484992">
        <ele>917.00000</ele>
        <time>2024-05-13T12:39:49Z</time>
      </trkpt>
      <trkpt lat="42.81400987" lon="13.57506492">
        <ele>918.00000</ele>
        <time>2024-05-13T12:39:54Z</time>
      </trkpt>
      <trkpt lat="42.81381994" lon="13.57527991">
        <ele>919.00000</ele>
        <time>2024-05-13T12:39:59Z</time>
      </trkpt>
      <trkpt lat="42.81359991" lon="13.57524999">
        <ele>921.00000</ele>
        <time>2024-05-13T12:40:03Z</time>
      </trkpt>
      <trkpt lat="42.81354996" lon="13.57519995">
        <ele>921.00000</ele>
        <time>2024-05-13T12:40:04Z</time>
      </trkpt>
      <trkpt lat="42.81343999" lon="13.57515997">
        <ele>920.00000</ele>
        <time>2024-05-13T12:40:07Z</time>
      </trkpt>
      <trkpt lat="42.81318996" lon="13.57517992">
        <ele>922.00000</ele>
        <time>2024-05-13T12:40:12Z</time>
      </trkpt>
      <trkpt lat="42.81300991" lon="13.57508998">
        <ele>922.00000</ele>
        <time>2024-05-13T12:40:15Z</time>
      </trkpt>
      <trkpt lat="42.81290992" lon="13.57508998">
        <ele>924.00000</ele>
        <time>2024-05-13T12:40:17Z</time>
      </trkpt>
      <trkpt lat="42.81270003" lon="13.57495495">
        <ele>927.00000</ele>
        <time>2024-05-13T12:40:22Z</time>
      </trkpt>
      <trkpt lat="42.81248998" lon="13.57481991">
        <ele>930.00000</ele>
        <time>2024-05-13T12:40:27Z</time>
      </trkpt>
      <trkpt lat="42.81229997" lon="13.57448992">
        <ele>928.00000</ele>
        <time>2024-05-13T12:40:33Z</time>
      </trkpt>
      <trkpt lat="42.81226996" lon="13.57445999">
        <ele>928.00000</ele>
        <time>2024-05-13T12:40:34Z</time>
      </trkpt>
      <trkpt lat="42.81218999" lon="13.57445999">
        <ele>930.00000</ele>
        <time>2024-05-13T12:40:35Z</time>
      </trkpt>
      <trkpt lat="42.81208992" lon="13.57454993">
        <ele>933.00000</ele>
        <time>2024-05-13T12:40:38Z</time>
      </trkpt>
      <trkpt lat="42.81203996" lon="13.57455999">
        <ele>935.00000</ele>
        <time>2024-05-13T12:40:39Z</time>
      </trkpt>
      <trkpt lat="42.81194994" lon="13.57470994">
        <ele>938.00000</ele>
        <time>2024-05-13T12:40:41Z</time>
      </trkpt>
      <trkpt lat="42.81196997" lon="13.57476996">
        <ele>939.00000</ele>
        <time>2024-05-13T12:40:42Z</time>
      </trkpt>
      <trkpt lat="42.81193996" lon="13.57467994">
        <ele>938.00000</ele>
        <time>2024-05-13T12:40:44Z</time>
      </trkpt>
      <trkpt lat="42.81195991" lon="13.57469997">
        <ele>938.00000</ele>
        <time>2024-05-13T12:40:44Z</time>
      </trkpt>
      <trkpt lat="42.81186997" lon="13.57471992">
        <ele>940.00000</ele>
        <time>2024-05-13T12:40:46Z</time>
      </trkpt>
      <trkpt lat="42.81178993" lon="13.57480994">
        <ele>943.00000</ele>
        <time>2024-05-13T12:40:48Z</time>
      </trkpt>
      <trkpt lat="42.81173997" lon="13.57490994">
        <ele>946.00000</ele>
        <time>2024-05-13T12:40:50Z</time>
      </trkpt>
      <trkpt lat="42.81161994" lon="13.57498998">
        <ele>948.00000</ele>
        <time>2024-05-13T12:40:53Z</time>
      </trkpt>
      <trkpt lat="42.81153998" lon="13.57510993">
        <ele>950.00000</ele>
        <time>2024-05-13T12:40:55Z</time>
      </trkpt>
      <trkpt lat="42.81144996" lon="13.57517992">
        <ele>951.00000</ele>
        <time>2024-05-13T12:40:57Z</time>
      </trkpt>
      <trkpt lat="42.81137997" lon="13.57541997">
        <ele>954.00000</ele>
        <time>2024-05-13T12:41:01Z</time>
      </trkpt>
      <trkpt lat="42.81130998" lon="13.57552994">
        <ele>956.00000</ele>
        <time>2024-05-13T12:41:03Z</time>
      </trkpt>
      <trkpt lat="42.81104008" lon="13.57571979">
        <ele>961.00000</ele>
        <time>2024-05-13T12:41:09Z</time>
      </trkpt>
      <trkpt lat="42.81076993" lon="13.57590998">
        <ele>964.00000</ele>
        <time>2024-05-13T12:41:15Z</time>
      </trkpt>
      <trkpt lat="42.81073993" lon="13.57600998">
        <ele>964.00000</ele>
        <time>2024-05-13T12:41:17Z</time>
      </trkpt>
      <trkpt lat="42.81062996" lon="13.57617996">
        <ele>965.00000</ele>
        <time>2024-05-13T12:41:20Z</time>
      </trkpt>
      <trkpt lat="42.81049995" lon="13.57631994">
        <ele>965.00000</ele>
        <time>2024-05-13T12:41:24Z</time>
      </trkpt>
      <trkpt lat="42.81026995" lon="13.57642999">
        <ele>968.00000</ele>
        <time>2024-05-13T12:41:28Z</time>
      </trkpt>
      <trkpt lat="42.81029996" lon="13.57653996">
        <ele>966.00000</ele>
        <time>2024-05-13T12:41:30Z</time>
      </trkpt>
      <trkpt lat="42.81026995" lon="13.57665999">
        <ele>965.00000</ele>
        <time>2024-05-13T12:41:32Z</time>
      </trkpt>
      <trkpt lat="42.81004993" lon="13.57682998">
        <ele>969.00000</ele>
        <time>2024-05-13T12:41:37Z</time>
      </trkpt>
      <trkpt lat="42.80995999" lon="13.57685999">
        <ele>971.00000</ele>
        <time>2024-05-13T12:41:39Z</time>
      </trkpt>
      <trkpt lat="42.80980995" lon="13.57683995">
        <ele>975.00000</ele>
        <time>2024-05-13T12:41:42Z</time>
      </trkpt>
      <trkpt lat="42.80973996" lon="13.57685999">
        <ele>977.00000</ele>
        <time>2024-05-13T12:41:43Z</time>
      </trkpt>
      <trkpt lat="42.80956998" lon="13.57684993">
        <ele>984.00000</ele>
        <time>2024-05-13T12:41:47Z</time>
      </trkpt>
      <trkpt lat="42.80950997" lon="13.57673996">
        <ele>987.00000</ele>
        <time>2024-05-13T12:41:49Z</time>
      </trkpt>
      <trkpt lat="42.80940997" lon="13.57663996">
        <ele>990.00000</ele>
        <time>2024-05-13T12:41:51Z</time>
      </trkpt>
      <trkpt lat="42.80936999" lon="13.57668992">
        <ele>991.00000</ele>
        <time>2024-05-13T12:41:52Z</time>
      </trkpt>
      <trkpt lat="42.80940997" lon="13.57665999">
        <ele>990.00000</ele>
        <time>2024-05-13T12:41:53Z</time>
      </trkpt>
      <trkpt lat="42.80921995" lon="13.57666997">
        <ele>995.00000</ele>
        <time>2024-05-13T12:41:57Z</time>
      </trkpt>
      <trkpt lat="42.80908995" lon="13.57673996">
        <ele>997.00000</ele>
        <time>2024-05-13T12:42:00Z</time>
      </trkpt>
      <trkpt lat="42.80899993" lon="13.57667994">
        <ele>999.00000</ele>
        <time>2024-05-13T12:42:02Z</time>
      </trkpt>
      <trkpt lat="42.80900998" lon="13.57648992">
        <ele>1000.0000</ele>
        <time>2024-05-13T12:42:05Z</time>
      </trkpt>
      <trkpt lat="42.80888996" lon="13.57634995">
        <ele>1002.0000</ele>
        <time>2024-05-13T12:42:08Z</time>
      </trkpt>
      <trkpt lat="42.80875995" lon="13.57613998">
        <ele>1004.0000</ele>
        <time>2024-05-13T12:42:12Z</time>
      </trkpt>
      <trkpt lat="42.80873992" lon="13.57601995">
        <ele>1006.0000</ele>
        <time>2024-05-13T12:42:14Z</time>
      </trkpt>
      <trkpt lat="42.80872995" lon="13.57603998">
        <ele>1006.0000</ele>
        <time>2024-05-13T12:42:14Z</time>
      </trkpt>
      <trkpt lat="42.80873992" lon="13.57592993">
        <ele>1007.0000</ele>
        <time>2024-05-13T12:42:16Z</time>
      </trkpt>
      <trkpt lat="42.80871997" lon="13.57586991">
        <ele>1008.0000</ele>
        <time>2024-05-13T12:42:17Z</time>
      </trkpt>
      <trkpt lat="42.80858477" lon="13.57562961">
        <ele>1012.0000</ele>
        <time>2024-05-13T12:42:21Z</time>
      </trkpt>
      <trkpt lat="42.80844999" lon="13.57538997">
        <ele>1013.0000</ele>
        <time>2024-05-13T12:42:26Z</time>
      </trkpt>
      <trkpt lat="42.80839995" lon="13.57522996">
        <ele>1013.0000</ele>
        <time>2024-05-13T12:42:28Z</time>
      </trkpt>
      <trkpt lat="42.80821999" lon="13.57497992">
        <ele>1016.0000</ele>
        <time>2024-05-13T12:42:33Z</time>
      </trkpt>
      <trkpt lat="42.80808999" lon="13.57472998">
        <ele>1022.0000</ele>
        <time>2024-05-13T12:42:38Z</time>
      </trkpt>
      <trkpt lat="42.80806995" lon="13.57473995">
        <ele>1022.0000</ele>
        <time>2024-05-13T12:42:38Z</time>
      </trkpt>
      <trkpt lat="42.80805998" lon="13.57481991">
        <ele>1021.0000</ele>
        <time>2024-05-13T12:42:39Z</time>
      </trkpt>
      <trkpt lat="42.80807993" lon="13.57475998">
        <ele>1022.0000</ele>
        <time>2024-05-13T12:42:40Z</time>
      </trkpt>
      <trkpt lat="42.80804992" lon="13.57473995">
        <ele>1022.0000</ele>
        <time>2024-05-13T12:42:41Z</time>
      </trkpt>
      <trkpt lat="42.80797993" lon="13.57458991">
        <ele>1025.0000</ele>
        <time>2024-05-13T12:42:44Z</time>
      </trkpt>
      <trkpt lat="42.80782981" lon="13.57439981">
        <ele>1030.0000</ele>
        <time>2024-05-13T12:42:48Z</time>
      </trkpt>
      <trkpt lat="42.80767994" lon="13.57420996">
        <ele>1033.0000</ele>
        <time>2024-05-13T12:42:52Z</time>
      </trkpt>
      <trkpt lat="42.80766997" lon="13.57403998">
        <ele>1036.0000</ele>
        <time>2024-05-13T12:42:54Z</time>
      </trkpt>
      <trkpt lat="42.80754483" lon="13.57388483">
        <ele>1039.0000</ele>
        <time>2024-05-13T12:42:58Z</time>
      </trkpt>
      <trkpt lat="42.80741994" lon="13.57372993">
        <ele>1041.0000</ele>
        <time>2024-05-13T12:43:01Z</time>
      </trkpt>
      <trkpt lat="42.80722992" lon="13.57358995">
        <ele>1043.0000</ele>
        <time>2024-05-13T12:43:05Z</time>
      </trkpt>
      <trkpt lat="42.80712992" lon="13.57356992">
        <ele>1043.0000</ele>
        <time>2024-05-13T12:43:07Z</time>
      </trkpt>
      <trkpt lat="42.80696991" lon="13.57341997">
        <ele>1045.0000</ele>
        <time>2024-05-13T12:43:11Z</time>
      </trkpt>
      <trkpt lat="42.80679993" lon="13.57314999">
        <ele>1050.0000</ele>
        <time>2024-05-13T12:43:17Z</time>
      </trkpt>
      <trkpt lat="42.80668484" lon="13.57299987">
        <ele>1053.0000</ele>
        <time>2024-05-13T12:43:20Z</time>
      </trkpt>
      <trkpt lat="42.80656993" lon="13.57284992">
        <ele>1055.0000</ele>
        <time>2024-05-13T12:43:23Z</time>
      </trkpt>
      <trkpt lat="42.80648997" lon="13.57267993">
        <ele>1056.0000</ele>
        <time>2024-05-13T12:43:26Z</time>
      </trkpt>
      <trkpt lat="42.80633482" lon="13.57245974">
        <ele>1058.0000</ele>
        <time>2024-05-13T12:43:30Z</time>
      </trkpt>
      <trkpt lat="42.80617992" lon="13.57223996">
        <ele>1061.0000</ele>
        <time>2024-05-13T12:43:35Z</time>
      </trkpt>
      <trkpt lat="42.80601488" lon="13.57207995">
        <ele>1064.0000</ele>
        <time>2024-05-13T12:43:39Z</time>
      </trkpt>
      <trkpt lat="42.80584992" lon="13.57191994">
        <ele>1067.0000</ele>
        <time>2024-05-13T12:43:43Z</time>
      </trkpt>
      <trkpt lat="42.80572998" lon="13.57183998">
        <ele>1067.0000</ele>
        <time>2024-05-13T12:43:46Z</time>
      </trkpt>
      <trkpt lat="42.80562998" lon="13.57170998">
        <ele>1067.0000</ele>
        <time>2024-05-13T12:43:48Z</time>
      </trkpt>
      <trkpt lat="42.80536511" lon="13.57155005">
        <ele>1066.0000</ele>
        <time>2024-05-13T12:43:54Z</time>
      </trkpt>
      <trkpt lat="42.80509999" lon="13.57138996">
        <ele>1067.0000</ele>
        <time>2024-05-13T12:44:00Z</time>
      </trkpt>
      <trkpt lat="42.80483001" lon="13.57118996">
        <ele>1069.0000</ele>
        <time>2024-05-13T12:44:06Z</time>
      </trkpt>
      <trkpt lat="42.80455995" lon="13.57098997">
        <ele>1071.0000</ele>
        <time>2024-05-13T12:44:12Z</time>
      </trkpt>
      <trkpt lat="42.80437504" lon="13.57088495">
        <ele>1073.0000</ele>
        <time>2024-05-13T12:44:16Z</time>
      </trkpt>
      <trkpt lat="42.80418997" lon="13.57077992">
        <ele>1074.0000</ele>
        <time>2024-05-13T12:44:20Z</time>
      </trkpt>
      <trkpt lat="42.80411998" lon="13.57070993">
        <ele>1074.0000</ele>
        <time>2024-05-13T12:44:22Z</time>
      </trkpt>
      <trkpt lat="42.80393508" lon="13.57062494">
        <ele>1076.0000</ele>
        <time>2024-05-13T12:44:26Z</time>
      </trkpt>
      <trkpt lat="42.80374992" lon="13.57053995">
        <ele>1077.0000</ele>
        <time>2024-05-13T12:44:30Z</time>
      </trkpt>
      <trkpt lat="42.80363995" lon="13.57039997">
        <ele>1077.0000</ele>
        <time>2024-05-13T12:44:33Z</time>
      </trkpt>
      <trkpt lat="42.80354993" lon="13.57036996">
        <ele>1077.0000</ele>
        <time>2024-05-13T12:44:35Z</time>
      </trkpt>
      <trkpt lat="42.80340995" lon="13.57026997">
        <ele>1077.0000</ele>
        <time>2024-05-13T12:44:38Z</time>
      </trkpt>
      <trkpt lat="42.80316998" lon="13.57018992">
        <ele>1078.0000</ele>
        <time>2024-05-13T12:44:43Z</time>
      </trkpt>
      <trkpt lat="42.80297996" lon="13.57018992">
        <ele>1081.0000</ele>
        <time>2024-05-13T12:44:47Z</time>
      </trkpt>
      <trkpt lat="42.80267997" lon="13.57014994">
        <ele>1085.0000</ele>
        <time>2024-05-13T12:44:53Z</time>
      </trkpt>
      <trkpt lat="42.80241527" lon="13.57015488">
        <ele>1088.0000</ele>
        <time>2024-05-13T12:44:58Z</time>
      </trkpt>
      <trkpt lat="42.80214998" lon="13.57015999">
        <ele>1090.0000</ele>
        <time>2024-05-13T12:45:03Z</time>
      </trkpt>
      <trkpt lat="42.80199014" lon="13.57018489">
        <ele>1090.0000</ele>
        <time>2024-05-13T12:45:06Z</time>
      </trkpt>
      <trkpt lat="42.80182996" lon="13.57020995">
        <ele>1091.0000</ele>
        <time>2024-05-13T12:45:10Z</time>
      </trkpt>
      <trkpt lat="42.80152997" lon="13.57030995">
        <ele>1095.0000</ele>
        <time>2024-05-13T12:45:16Z</time>
      </trkpt>
      <trkpt lat="42.80137994" lon="13.57038999">
        <ele>1096.0000</ele>
        <time>2024-05-13T12:45:19Z</time>
      </trkpt>
      <trkpt lat="42.80128992" lon="13.57034993">
        <ele>1096.0000</ele>
        <time>2024-05-13T12:45:21Z</time>
      </trkpt>
      <trkpt lat="42.80109998" lon="13.57044992">
        <ele>1096.0000</ele>
        <time>2024-05-13T12:45:25Z</time>
      </trkpt>
      <trkpt lat="42.80103997" lon="13.57043995">
        <ele>1097.0000</ele>
        <time>2024-05-13T12:45:26Z</time>
      </trkpt>
      <trkpt lat="42.80102999" lon="13.57049996">
        <ele>1097.0000</ele>
        <time>2024-05-13T12:45:27Z</time>
      </trkpt>
      <trkpt lat="42.80094995" lon="13.57053995">
        <ele>1098.0000</ele>
        <time>2024-05-13T12:45:29Z</time>
      </trkpt>
      <trkpt lat="42.80100996" lon="13.57053995">
        <ele>1097.0000</ele>
        <time>2024-05-13T12:45:30Z</time>
      </trkpt>
      <trkpt lat="42.80101994" lon="13.57056995">
        <ele>1097.0000</ele>
        <time>2024-05-13T12:45:31Z</time>
      </trkpt>
      <trkpt lat="42.80098993" lon="13.57059996">
        <ele>1098.0000</ele>
        <time>2024-05-13T12:45:31Z</time>
      </trkpt>
      <trkpt lat="42.80097995" lon="13.57088997">
        <ele>1100.0000</ele>
        <time>2024-05-13T12:45:36Z</time>
      </trkpt>
      <trkpt lat="42.80087996" lon="13.57103993">
        <ele>1101.0000</ele>
        <time>2024-05-13T12:45:39Z</time>
      </trkpt>
      <trkpt lat="42.80079999" lon="13.57126993">
        <ele>1102.0000</ele>
        <time>2024-05-13T12:45:42Z</time>
      </trkpt>
      <trkpt lat="42.80066999" lon="13.57145994">
        <ele>1103.0000</ele>
        <time>2024-05-13T12:45:46Z</time>
      </trkpt>
      <trkpt lat="42.80062993" lon="13.57158995">
        <ele>1103.0000</ele>
        <time>2024-05-13T12:45:48Z</time>
      </trkpt>
      <trkpt lat="42.80065993" lon="13.57169992">
        <ele>1103.0000</ele>
        <time>2024-05-13T12:45:50Z</time>
      </trkpt>
      <trkpt lat="42.80071995" lon="13.57173998">
        <ele>1102.0000</ele>
        <time>2024-05-13T12:45:51Z</time>
      </trkpt>
      <trkpt lat="42.80088993" lon="13.57176999">
        <ele>1102.0000</ele>
        <time>2024-05-13T12:45:55Z</time>
      </trkpt>
      <trkpt lat="42.80095992" lon="13.57189999">
        <ele>1102.0000</ele>
        <time>2024-05-13T12:45:57Z</time>
      </trkpt>
      <trkpt lat="42.80103502" lon="13.57221557">
        <ele>1102.0000</ele>
        <time>2024-05-13T12:46:02Z</time>
      </trkpt>
      <trkpt lat="42.80110996" lon="13.57252998">
        <ele>1101.0000</ele>
        <time>2024-05-13T12:46:07Z</time>
      </trkpt>
      <trkpt lat="42.80119998" lon="13.57277993">
        <ele>1102.0000</ele>
        <time>2024-05-13T12:46:11Z</time>
      </trkpt>
      <trkpt lat="42.80126997" lon="13.57288998">
        <ele>1102.0000</ele>
        <time>2024-05-13T12:46:13Z</time>
      </trkpt>
      <trkpt lat="42.80135999" lon="13.57289995">
        <ele>1104.0000</ele>
        <time>2024-05-13T12:46:15Z</time>
      </trkpt>
      <trkpt lat="42.80151992" lon="13.57278998">
        <ele>1104.0000</ele>
        <time>2024-05-13T12:46:18Z</time>
      </trkpt>
      <trkpt lat="42.80172997" lon="13.57268999">
        <ele>1104.0000</ele>
        <time>2024-05-13T12:46:23Z</time>
      </trkpt>
      <trkpt lat="42.80177992" lon="13.57273994">
        <ele>1104.0000</ele>
        <time>2024-05-13T12:46:24Z</time>
      </trkpt>
      <trkpt lat="42.80173994" lon="13.57289995">
        <ele>1104.0000</ele>
        <time>2024-05-13T12:46:27Z</time>
      </trkpt>
      <trkpt lat="42.80174992" lon="13.57313046">
        <ele>1103.0000</ele>
        <time>2024-05-13T12:46:30Z</time>
      </trkpt>
      <trkpt lat="42.80175997" lon="13.57335995">
        <ele>1102.0000</ele>
        <time>2024-05-13T12:46:33Z</time>
      </trkpt>
      <trkpt lat="42.80185511" lon="13.57371560">
        <ele>1101.0000</ele>
        <time>2024-05-13T12:46:39Z</time>
      </trkpt>
      <trkpt lat="42.80194999" lon="13.57406998">
        <ele>1101.0000</ele>
        <time>2024-05-13T12:46:45Z</time>
      </trkpt>
      <trkpt lat="42.80206013" lon="13.57435539">
        <ele>1100.0000</ele>
        <time>2024-05-13T12:46:49Z</time>
      </trkpt>
      <trkpt lat="42.80216993" lon="13.57463995">
        <ele>1100.0000</ele>
        <time>2024-05-13T12:46:54Z</time>
      </trkpt>
      <trkpt lat="42.80217999" lon="13.57475998">
        <ele>1100.0000</ele>
        <time>2024-05-13T12:46:56Z</time>
      </trkpt>
      <trkpt lat="42.80228996" lon="13.57493994">
        <ele>1099.0000</ele>
        <time>2024-05-13T12:46:59Z</time>
      </trkpt>
      <trkpt lat="42.80233992" lon="13.57532995">
        <ele>1097.0000</ele>
        <time>2024-05-13T12:47:05Z</time>
      </trkpt>
      <trkpt lat="42.80240999" lon="13.57558996">
        <ele>1095.0000</ele>
        <time>2024-05-13T12:47:09Z</time>
      </trkpt>
      <trkpt lat="42.80242994" lon="13.57581996">
        <ele>1095.0000</ele>
        <time>2024-05-13T12:47:13Z</time>
      </trkpt>
      <trkpt lat="42.80243991" lon="13.57611056">
        <ele>1090.0000</ele>
        <time>2024-05-13T12:47:17Z</time>
      </trkpt>
      <trkpt lat="42.80244997" lon="13.57640124">
        <ele>1086.0000</ele>
        <time>2024-05-13T12:47:21Z</time>
      </trkpt>
      <trkpt lat="42.80245995" lon="13.57668992">
        <ele>1084.0000</ele>
        <time>2024-05-13T12:47:25Z</time>
      </trkpt>
      <trkpt lat="42.80247998" lon="13.57697725">
        <ele>1085.0000</ele>
        <time>2024-05-13T12:47:30Z</time>
      </trkpt>
      <trkpt lat="42.80250001" lon="13.57726458">
        <ele>1081.0000</ele>
        <time>2024-05-13T12:47:34Z</time>
      </trkpt>
      <trkpt lat="42.80251996" lon="13.57754998">
        <ele>1077.0000</ele>
        <time>2024-05-13T12:47:38Z</time>
      </trkpt>
      <trkpt lat="42.80251996" lon="13.57790999">
        <ele>1071.0000</ele>
        <time>2024-05-13T12:47:43Z</time>
      </trkpt>
      <trkpt lat="42.80257998" lon="13.57800998">
        <ele>1071.0000</ele>
        <time>2024-05-13T12:47:45Z</time>
      </trkpt>
      <trkpt lat="42.80261996" lon="13.57828994">
        <ele>1068.0000</ele>
        <time>2024-05-13T12:47:49Z</time>
      </trkpt>
      <trkpt lat="42.80261996" lon="13.57836998">
        <ele>1067.0000</ele>
        <time>2024-05-13T12:47:51Z</time>
      </trkpt>
      <trkpt lat="42.80255994" lon="13.57843997">
        <ele>1066.0000</ele>
        <time>2024-05-13T12:47:52Z</time>
      </trkpt>
      <trkpt lat="42.80252994" lon="13.57855992">
        <ele>1064.0000</ele>
        <time>2024-05-13T12:47:54Z</time>
      </trkpt>
      <trkpt lat="42.80266991" lon="13.57892998">
        <ele>1061.0000</ele>
        <time>2024-05-13T12:48:00Z</time>
      </trkpt>
      <trkpt lat="42.80262993" lon="13.57907993">
        <ele>1057.0000</ele>
        <time>2024-05-13T12:48:03Z</time>
      </trkpt>
      <trkpt lat="42.80257998" lon="13.57910994">
        <ele>1055.0000</ele>
        <time>2024-05-13T12:48:04Z</time>
      </trkpt>
      <trkpt lat="42.80252994" lon="13.57908999">
        <ele>1054.0000</ele>
        <time>2024-05-13T12:48:05Z</time>
      </trkpt>
      <trkpt lat="42.80245995" lon="13.57898999">
        <ele>1055.0000</ele>
        <time>2024-05-13T12:48:07Z</time>
      </trkpt>
      <trkpt lat="42.80229994" lon="13.57898999">
        <ele>1051.0000</ele>
        <time>2024-05-13T12:48:10Z</time>
      </trkpt>
      <trkpt lat="42.80222995" lon="13.57902998">
        <ele>1049.0000</ele>
        <time>2024-05-13T12:48:11Z</time>
      </trkpt>
      <trkpt lat="42.80219994" lon="13.57909996">
        <ele>1047.0000</ele>
        <time>2024-05-13T12:48:13Z</time>
      </trkpt>
      <trkpt lat="42.80220991" lon="13.57920994">
        <ele>1046.0000</ele>
        <time>2024-05-13T12:48:14Z</time>
      </trkpt>
      <trkpt lat="42.80229994" lon="13.57934991">
        <ele>1045.0000</ele>
        <time>2024-05-13T12:48:17Z</time>
      </trkpt>
      <trkpt lat="42.80243991" lon="13.57945997">
        <ele>1047.0000</ele>
        <time>2024-05-13T12:48:20Z</time>
      </trkpt>
      <trkpt lat="42.80254997" lon="13.57952996">
        <ele>1048.0000</ele>
        <time>2024-05-13T12:48:23Z</time>
      </trkpt>
      <trkpt lat="42.80281995" lon="13.57956994">
        <ele>1053.0000</ele>
        <time>2024-05-13T12:48:28Z</time>
      </trkpt>
      <trkpt lat="42.80283998" lon="13.57966993">
        <ele>1052.0000</ele>
        <time>2024-05-13T12:48:30Z</time>
      </trkpt>
      <trkpt lat="42.80286999" lon="13.57968997">
        <ele>1052.0000</ele>
        <time>2024-05-13T12:48:30Z</time>
      </trkpt>
      <trkpt lat="42.80303997" lon="13.57964999">
        <ele>1055.0000</ele>
        <time>2024-05-13T12:48:34Z</time>
      </trkpt>
      <trkpt lat="42.80315992" lon="13.57965996">
        <ele>1055.0000</ele>
        <time>2024-05-13T12:48:36Z</time>
      </trkpt>
      <trkpt lat="42.80325992" lon="13.57961998">
        <ele>1055.0000</ele>
        <time>2024-05-13T12:48:38Z</time>
      </trkpt>
      <trkpt lat="42.80336997" lon="13.57950992">
        <ele>1056.0000</ele>
        <time>2024-05-13T12:48:41Z</time>
      </trkpt>
      <trkpt lat="42.80356996" lon="13.57937992">
        <ele>1057.0000</ele>
        <time>2024-05-13T12:48:45Z</time>
      </trkpt>
      <trkpt lat="42.80375998" lon="13.57919996">
        <ele>1056.0000</ele>
        <time>2024-05-13T12:48:50Z</time>
      </trkpt>
      <trkpt lat="42.80391488" lon="13.57908999">
        <ele>1055.0000</ele>
        <time>2024-05-13T12:48:54Z</time>
      </trkpt>
      <trkpt lat="42.80406994" lon="13.57897994">
        <ele>1054.0000</ele>
        <time>2024-05-13T12:48:57Z</time>
      </trkpt>
      <trkpt lat="42.80415996" lon="13.57892998">
        <ele>1055.0000</ele>
        <time>2024-05-13T12:48:59Z</time>
      </trkpt>
      <trkpt lat="42.80438996" lon="13.57895999">
        <ele>1050.0000</ele>
        <time>2024-05-13T12:49:04Z</time>
      </trkpt>
      <trkpt lat="42.80459473" lon="13.57907985">
        <ele>1041.0000</ele>
        <time>2024-05-13T12:49:08Z</time>
      </trkpt>
      <trkpt lat="42.80479992" lon="13.57919996">
        <ele>1033.0000</ele>
        <time>2024-05-13T12:49:13Z</time>
      </trkpt>
      <trkpt lat="42.80498994" lon="13.57935997">
        <ele>1027.0000</ele>
        <time>2024-05-13T12:49:17Z</time>
      </trkpt>
      <trkpt lat="42.80506999" lon="13.57951998">
        <ele>1025.0000</ele>
        <time>2024-05-13T12:49:20Z</time>
      </trkpt>
      <trkpt lat="42.80514509" lon="13.57973531">
        <ele>1023.0000</ele>
        <time>2024-05-13T12:49:23Z</time>
      </trkpt>
      <trkpt lat="42.80521994" lon="13.57994997">
        <ele>1019.0000</ele>
        <time>2024-05-13T12:49:27Z</time>
      </trkpt>
      <trkpt lat="42.80530996" lon="13.57996992">
        <ele>1019.0000</ele>
        <time>2024-05-13T12:49:29Z</time>
      </trkpt>
      <trkpt lat="42.80556997" lon="13.58009993">
        <ele>1017.0000</ele>
        <time>2024-05-13T12:49:34Z</time>
      </trkpt>
      <trkpt lat="42.80566996" lon="13.58010998">
        <ele>1015.0000</ele>
        <time>2024-05-13T12:49:36Z</time>
      </trkpt>
      <trkpt lat="42.80593475" lon="13.57993505">
        <ele>1012.0000</ele>
        <time>2024-05-13T12:49:42Z</time>
      </trkpt>
      <trkpt lat="42.80619995" lon="13.57975996">
        <ele>1007.0000</ele>
        <time>2024-05-13T12:49:48Z</time>
      </trkpt>
      <trkpt lat="42.80630992" lon="13.57971997">
        <ele>1006.0000</ele>
        <time>2024-05-13T12:49:50Z</time>
      </trkpt>
      <trkpt lat="42.80652995" lon="13.57969994">
        <ele>1003.0000</ele>
        <time>2024-05-13T12:49:55Z</time>
      </trkpt>
      <trkpt lat="42.80677998" lon="13.57956994">
        <ele>997.00000</ele>
        <time>2024-05-13T12:50:00Z</time>
      </trkpt>
      <trkpt lat="42.80688995" lon="13.57944999">
        <ele>995.00000</ele>
        <time>2024-05-13T12:50:03Z</time>
      </trkpt>
      <trkpt lat="42.80697997" lon="13.57928998">
        <ele>994.00000</ele>
        <time>2024-05-13T12:50:06Z</time>
      </trkpt>
      <trkpt lat="42.80703999" lon="13.57907993">
        <ele>995.00000</ele>
        <time>2024-05-13T12:50:09Z</time>
      </trkpt>
      <trkpt lat="42.80714996" lon="13.57887994">
        <ele>995.00000</ele>
        <time>2024-05-13T12:50:13Z</time>
      </trkpt>
      <trkpt lat="42.80726999" lon="13.57873485">
        <ele>993.00000</ele>
        <time>2024-05-13T12:50:16Z</time>
      </trkpt>
      <trkpt lat="42.80738993" lon="13.57858993">
        <ele>992.00000</ele>
        <time>2024-05-13T12:50:19Z</time>
      </trkpt>
      <trkpt lat="42.80754500" lon="13.57835473">
        <ele>992.00000</ele>
        <time>2024-05-13T12:50:24Z</time>
      </trkpt>
      <trkpt lat="42.80769998" lon="13.57811995">
        <ele>992.00000</ele>
        <time>2024-05-13T12:50:29Z</time>
      </trkpt>
      <trkpt lat="42.80778991" lon="13.57805994">
        <ele>992.00000</ele>
        <time>2024-05-13T12:50:31Z</time>
      </trkpt>
      <trkpt lat="42.80797993" lon="13.57804996">
        <ele>990.00000</ele>
        <time>2024-05-13T12:50:34Z</time>
      </trkpt>
      <trkpt lat="42.80820465" lon="13.57810487">
        <ele>988.00000</ele>
        <time>2024-05-13T12:50:39Z</time>
      </trkpt>
      <trkpt lat="42.80842996" lon="13.57815993">
        <ele>985.00000</ele>
        <time>2024-05-13T12:50:43Z</time>
      </trkpt>
      <trkpt lat="42.80857999" lon="13.57815993">
        <ele>983.00000</ele>
        <time>2024-05-13T12:50:46Z</time>
      </trkpt>
      <trkpt lat="42.80885961" lon="13.57809497">
        <ele>980.00000</ele>
        <time>2024-05-13T12:50:52Z</time>
      </trkpt>
      <trkpt lat="42.80913999" lon="13.57802993">
        <ele>979.00000</ele>
        <time>2024-05-13T12:50:58Z</time>
      </trkpt>
      <trkpt lat="42.80925993" lon="13.57805994">
        <ele>977.00000</ele>
        <time>2024-05-13T12:51:00Z</time>
      </trkpt>
      <trkpt lat="42.80939999" lon="13.57812993">
        <ele>975.00000</ele>
        <time>2024-05-13T12:51:03Z</time>
      </trkpt>
      <trkpt lat="42.80956998" lon="13.57828994">
        <ele>973.00000</ele>
        <time>2024-05-13T12:51:07Z</time>
      </trkpt>
      <trkpt lat="42.80959999" lon="13.57842992">
        <ele>972.00000</ele>
        <time>2024-05-13T12:51:10Z</time>
      </trkpt>
      <trkpt lat="42.80955648" lon="13.57880073">
        <ele>970.00000</ele>
        <time>2024-05-13T12:51:15Z</time>
      </trkpt>
      <trkpt lat="42.80951307" lon="13.57917155">
        <ele>967.00000</ele>
        <time>2024-05-13T12:51:21Z</time>
      </trkpt>
      <trkpt lat="42.80946998" lon="13.57953993">
        <ele>967.00000</ele>
        <time>2024-05-13T12:51:26Z</time>
      </trkpt>
      <trkpt lat="42.80948993" lon="13.57980991">
        <ele>968.00000</ele>
        <time>2024-05-13T12:51:30Z</time>
      </trkpt>
      <trkpt lat="42.80955992" lon="13.58020998">
        <ele>969.00000</ele>
        <time>2024-05-13T12:51:36Z</time>
      </trkpt>
      <trkpt lat="42.80964005" lon="13.58043529">
        <ele>970.00000</ele>
        <time>2024-05-13T12:51:40Z</time>
      </trkpt>
      <trkpt lat="42.80971993" lon="13.58065992">
        <ele>971.00000</ele>
        <time>2024-05-13T12:51:43Z</time>
      </trkpt>
      <trkpt lat="42.80983996" lon="13.58088992">
        <ele>969.00000</ele>
        <time>2024-05-13T12:51:48Z</time>
      </trkpt>
      <trkpt lat="42.81005999" lon="13.58106996">
        <ele>972.00000</ele>
        <time>2024-05-13T12:51:53Z</time>
      </trkpt>
      <trkpt lat="42.81024992" lon="13.58129996">
        <ele>969.00000</ele>
        <time>2024-05-13T12:51:58Z</time>
      </trkpt>
      <trkpt lat="42.81042996" lon="13.58142997">
        <ele>968.00000</ele>
        <time>2024-05-13T12:52:02Z</time>
      </trkpt>
      <trkpt lat="42.81053993" lon="13.58155997">
        <ele>966.00000</ele>
        <time>2024-05-13T12:52:05Z</time>
      </trkpt>
      <trkpt lat="42.81068997" lon="13.58167991">
        <ele>964.00000</ele>
        <time>2024-05-13T12:52:08Z</time>
      </trkpt>
      <trkpt lat="42.81089994" lon="13.58172995">
        <ele>964.00000</ele>
        <time>2024-05-13T12:52:13Z</time>
      </trkpt>
      <trkpt lat="42.81094998" lon="13.58164999">
        <ele>966.00000</ele>
        <time>2024-05-13T12:52:14Z</time>
      </trkpt>
      <trkpt lat="42.81109984" lon="13.58155502">
        <ele>969.00000</ele>
        <time>2024-05-13T12:52:17Z</time>
      </trkpt>
      <trkpt lat="42.81124996" lon="13.58145997">
        <ele>970.00000</ele>
        <time>2024-05-13T12:52:21Z</time>
      </trkpt>
      <trkpt lat="42.81134996" lon="13.58141999">
        <ele>970.00000</ele>
        <time>2024-05-13T12:52:23Z</time>
      </trkpt>
      <trkpt lat="42.81160997" lon="13.58137993">
        <ele>970.00000</ele>
        <time>2024-05-13T12:52:28Z</time>
      </trkpt>
      <trkpt lat="42.81180468" lon="13.58137984">
        <ele>970.00000</ele>
        <time>2024-05-13T12:52:32Z</time>
      </trkpt>
      <trkpt lat="42.81199998" lon="13.58137993">
        <ele>969.00000</ele>
        <time>2024-05-13T12:52:36Z</time>
      </trkpt>
      <trkpt lat="42.81208992" lon="13.58134992">
        <ele>969.00000</ele>
        <time>2024-05-13T12:52:38Z</time>
      </trkpt>
      <trkpt lat="42.81228982" lon="13.58119494">
        <ele>968.00000</ele>
        <time>2024-05-13T12:52:42Z</time>
      </trkpt>
      <trkpt lat="42.81248998" lon="13.58103996">
        <ele>965.00000</ele>
        <time>2024-05-13T12:52:47Z</time>
      </trkpt>
      <trkpt lat="42.81248998" lon="13.58097994">
        <ele>965.00000</ele>
        <time>2024-05-13T12:52:48Z</time>
      </trkpt>
      <trkpt lat="42.81253994" lon="13.58086997">
        <ele>963.00000</ele>
        <time>2024-05-13T12:52:50Z</time>
      </trkpt>
      <trkpt lat="42.81253994" lon="13.58076998">
        <ele>963.00000</ele>
        <time>2024-05-13T12:52:51Z</time>
      </trkpt>
      <trkpt lat="42.81265997" lon="13.58066998">
        <ele>961.00000</ele>
        <time>2024-05-13T12:52:54Z</time>
      </trkpt>
      <trkpt lat="42.81281998" lon="13.58057996">
        <ele>958.00000</ele>
        <time>2024-05-13T12:52:57Z</time>
      </trkpt>
      <trkpt lat="42.81296993" lon="13.58054995">
        <ele>955.00000</ele>
        <time>2024-05-13T12:53:00Z</time>
      </trkpt>
      <trkpt lat="42.81302995" lon="13.58055992">
        <ele>954.00000</ele>
        <time>2024-05-13T12:53:02Z</time>
      </trkpt>
      <trkpt lat="42.81306993" lon="13.58059999">
        <ele>953.00000</ele>
        <time>2024-05-13T12:53:03Z</time>
      </trkpt>
      <trkpt lat="42.81311997" lon="13.58059999">
        <ele>950.00000</ele>
        <time>2024-05-13T12:53:04Z</time>
      </trkpt>
      <trkpt lat="42.81315995" lon="13.58053998">
        <ele>949.00000</ele>
        <time>2024-05-13T12:53:05Z</time>
      </trkpt>
      <trkpt lat="42.81326992" lon="13.58046999">
        <ele>945.00000</ele>
        <time>2024-05-13T12:53:07Z</time>
      </trkpt>
      <trkpt lat="42.81330998" lon="13.58049999">
        <ele>944.00000</ele>
        <time>2024-05-13T12:53:08Z</time>
      </trkpt>
      <trkpt lat="42.81330998" lon="13.58053998">
        <ele>944.00000</ele>
        <time>2024-05-13T12:53:09Z</time>
      </trkpt>
      <trkpt lat="42.81339992" lon="13.58066998">
        <ele>938.00000</ele>
        <time>2024-05-13T12:53:11Z</time>
      </trkpt>
      <trkpt lat="42.81343999" lon="13.58064995">
        <ele>936.00000</ele>
        <time>2024-05-13T12:53:12Z</time>
      </trkpt>
      <trkpt lat="42.81344996" lon="13.58053998">
        <ele>938.00000</ele>
        <time>2024-05-13T12:53:14Z</time>
      </trkpt>
      <trkpt lat="42.81359505" lon="13.58031475">
        <ele>934.00000</ele>
        <time>2024-05-13T12:53:18Z</time>
      </trkpt>
      <trkpt lat="42.81373998" lon="13.58008995">
        <ele>932.00000</ele>
        <time>2024-05-13T12:53:23Z</time>
      </trkpt>
      <trkpt lat="42.81384995" lon="13.57996992">
        <ele>930.00000</ele>
        <time>2024-05-13T12:53:26Z</time>
      </trkpt>
      <trkpt lat="42.81394994" lon="13.57963993">
        <ele>929.00000</ele>
        <time>2024-05-13T12:53:31Z</time>
      </trkpt>
      <trkpt lat="42.81404994" lon="13.57944999">
        <ele>927.00000</ele>
        <time>2024-05-13T12:53:34Z</time>
      </trkpt>
      <trkpt lat="42.81427994" lon="13.57926995">
        <ele>924.00000</ele>
        <time>2024-05-13T12:53:40Z</time>
      </trkpt>
      <trkpt lat="42.81438999" lon="13.57914992">
        <ele>923.00000</ele>
        <time>2024-05-13T12:53:42Z</time>
      </trkpt>
      <trkpt lat="42.81456509" lon="13.57888975">
        <ele>919.00000</ele>
        <time>2024-05-13T12:53:48Z</time>
      </trkpt>
      <trkpt lat="42.81473994" lon="13.57862999">
        <ele>914.00000</ele>
        <time>2024-05-13T12:53:53Z</time>
      </trkpt>
      <trkpt lat="42.81499994" lon="13.57849999">
        <ele>909.00000</ele>
        <time>2024-05-13T12:53:58Z</time>
      </trkpt>
      <trkpt lat="42.81513992" lon="13.57846998">
        <ele>905.00000</ele>
        <time>2024-05-13T12:54:01Z</time>
      </trkpt>
      <trkpt lat="42.81525995" lon="13.57851994">
        <ele>901.00000</ele>
        <time>2024-05-13T12:54:04Z</time>
      </trkpt>
      <trkpt lat="42.81530999" lon="13.57849999">
        <ele>900.00000</ele>
        <time>2024-05-13T12:54:05Z</time>
      </trkpt>
      <trkpt lat="42.81547998" lon="13.57860996">
        <ele>895.00000</ele>
        <time>2024-05-13T12:54:08Z</time>
      </trkpt>
      <trkpt lat="42.81567997" lon="13.57868992">
        <ele>891.00000</ele>
        <time>2024-05-13T12:54:13Z</time>
      </trkpt>
      <trkpt lat="42.81592958" lon="13.57872982">
        <ele>887.00000</ele>
        <time>2024-05-13T12:54:18Z</time>
      </trkpt>
      <trkpt lat="42.81617995" lon="13.57876997">
        <ele>881.00000</ele>
        <time>2024-05-13T12:54:23Z</time>
      </trkpt>
      <trkpt lat="42.81628992" lon="13.57847996">
        <ele>879.00000</ele>
        <time>2024-05-13T12:54:27Z</time>
      </trkpt>
      <trkpt lat="42.81641992" lon="13.57831995">
        <ele>878.00000</ele>
        <time>2024-05-13T12:54:31Z</time>
      </trkpt>
      <trkpt lat="42.81661991" lon="13.57813999">
        <ele>877.00000</ele>
        <time>2024-05-13T12:54:36Z</time>
      </trkpt>
      <trkpt lat="42.81672997" lon="13.57795994">
        <ele>877.00000</ele>
        <time>2024-05-13T12:54:39Z</time>
      </trkpt>
      <trkpt lat="42.81691999" lon="13.57785995">
        <ele>875.00000</ele>
        <time>2024-05-13T12:54:43Z</time>
      </trkpt>
      <trkpt lat="42.81702996" lon="13.57783991">
        <ele>874.00000</ele>
        <time>2024-05-13T12:54:45Z</time>
      </trkpt>
      <trkpt lat="42.81708997" lon="13.57789993">
        <ele>872.00000</ele>
        <time>2024-05-13T12:54:47Z</time>
      </trkpt>
      <trkpt lat="42.81718997" lon="13.57790999">
        <ele>870.00000</ele>
        <time>2024-05-13T12:54:49Z</time>
      </trkpt>
      <trkpt lat="42.81737999" lon="13.57799992">
        <ele>866.00000</ele>
        <time>2024-05-13T12:54:53Z</time>
      </trkpt>
      <trkpt lat="42.81750999" lon="13.57802993">
        <ele>863.00000</ele>
        <time>2024-05-13T12:54:56Z</time>
      </trkpt>
      <trkpt lat="42.81769992" lon="13.57790999">
        <ele>861.00000</ele>
        <time>2024-05-13T12:55:00Z</time>
      </trkpt>
      <trkpt lat="42.81779992" lon="13.57787998">
        <ele>860.00000</ele>
        <time>2024-05-13T12:55:02Z</time>
      </trkpt>
      <trkpt lat="42.81802992" lon="13.57797998">
        <ele>857.00000</ele>
        <time>2024-05-13T12:55:07Z</time>
      </trkpt>
      <trkpt lat="42.81819999" lon="13.57792994">
        <ele>855.00000</ele>
        <time>2024-05-13T12:55:10Z</time>
      </trkpt>
      <trkpt lat="42.81830996" lon="13.57796992">
        <ele>852.00000</ele>
        <time>2024-05-13T12:55:12Z</time>
      </trkpt>
      <trkpt lat="42.81850995" lon="13.57798995">
        <ele>849.00000</ele>
        <time>2024-05-13T12:55:16Z</time>
      </trkpt>
      <trkpt lat="42.81859997" lon="13.57793999">
        <ele>848.00000</ele>
        <time>2024-05-13T12:55:18Z</time>
      </trkpt>
      <trkpt lat="42.81877993" lon="13.57768996">
        <ele>850.00000</ele>
        <time>2024-05-13T12:55:24Z</time>
      </trkpt>
      <trkpt lat="42.81879996" lon="13.57762995">
        <ele>851.00000</ele>
        <time>2024-05-13T12:55:25Z</time>
      </trkpt>
      <trkpt lat="42.81886995" lon="13.57759994">
        <ele>851.00000</ele>
        <time>2024-05-13T12:55:26Z</time>
      </trkpt>
      <trkpt lat="42.81892997" lon="13.57758997">
        <ele>851.00000</ele>
        <time>2024-05-13T12:55:27Z</time>
      </trkpt>
      <trkpt lat="42.81913993" lon="13.57765995">
        <ele>849.00000</ele>
        <time>2024-05-13T12:55:32Z</time>
      </trkpt>
      <trkpt lat="42.81919995" lon="13.57760991">
        <ele>849.00000</ele>
        <time>2024-05-13T12:55:33Z</time>
      </trkpt>
      <trkpt lat="42.81938997" lon="13.57762995">
        <ele>848.00000</ele>
        <time>2024-05-13T12:55:37Z</time>
      </trkpt>
      <trkpt lat="42.81955484" lon="13.57752501">
        <ele>849.00000</ele>
        <time>2024-05-13T12:55:40Z</time>
      </trkpt>
      <trkpt lat="42.81971996" lon="13.57741998">
        <ele>850.00000</ele>
        <time>2024-05-13T12:55:44Z</time>
      </trkpt>
      <trkpt lat="42.81981996" lon="13.57742995">
        <ele>849.00000</ele>
        <time>2024-05-13T12:55:46Z</time>
      </trkpt>
      <trkpt lat="42.81987997" lon="13.57740992">
        <ele>849.00000</ele>
        <time>2024-05-13T12:55:47Z</time>
      </trkpt>
      <trkpt lat="42.81991995" lon="13.57731998">
        <ele>850.00000</ele>
        <time>2024-05-13T12:55:49Z</time>
      </trkpt>
      <trkpt lat="42.82002992" lon="13.57723994">
        <ele>851.00000</ele>
        <time>2024-05-13T12:55:51Z</time>
      </trkpt>
      <trkpt lat="42.82017988" lon="13.57707490">
        <ele>850.00000</ele>
        <time>2024-05-13T12:55:55Z</time>
      </trkpt>
      <trkpt lat="42.82032991" lon="13.57690994">
        <ele>850.00000</ele>
        <time>2024-05-13T12:55:59Z</time>
      </trkpt>
      <trkpt lat="42.82049998" lon="13.57680995">
        <ele>847.00000</ele>
        <time>2024-05-13T12:56:03Z</time>
      </trkpt>
      <trkpt lat="42.82058992" lon="13.57669997">
        <ele>845.00000</ele>
        <time>2024-05-13T12:56:05Z</time>
      </trkpt>
      <trkpt lat="42.82075999" lon="13.57662999">
        <ele>843.00000</ele>
        <time>2024-05-13T12:56:09Z</time>
      </trkpt>
      <trkpt lat="42.82082998" lon="13.57656997">
        <ele>843.00000</ele>
        <time>2024-05-13T12:56:10Z</time>
      </trkpt>
      <trkpt lat="42.82084993" lon="13.57648992">
        <ele>843.00000</ele>
        <time>2024-05-13T12:56:12Z</time>
      </trkpt>
      <trkpt lat="42.82094992" lon="13.57637995">
        <ele>845.00000</ele>
        <time>2024-05-13T12:56:14Z</time>
      </trkpt>
      <trkpt lat="42.82103994" lon="13.57638993">
        <ele>846.00000</ele>
        <time>2024-05-13T12:56:16Z</time>
      </trkpt>
      <trkpt lat="42.82111999" lon="13.57636998">
        <ele>847.00000</ele>
        <time>2024-05-13T12:56:18Z</time>
      </trkpt>
      <trkpt lat="42.82132971" lon="13.57627996">
        <ele>848.00000</ele>
        <time>2024-05-13T12:56:22Z</time>
      </trkpt>
      <trkpt lat="42.82153992" lon="13.57618994">
        <ele>844.00000</ele>
        <time>2024-05-13T12:56:26Z</time>
      </trkpt>
      <trkpt lat="42.82159994" lon="13.57610997">
        <ele>843.00000</ele>
        <time>2024-05-13T12:56:28Z</time>
      </trkpt>
      <trkpt lat="42.82156993" lon="13.57587997">
        <ele>841.00000</ele>
        <time>2024-05-13T12:56:32Z</time>
      </trkpt>
      <trkpt lat="42.82167999" lon="13.57570999">
        <ele>836.00000</ele>
        <time>2024-05-13T12:56:35Z</time>
      </trkpt>
      <trkpt lat="42.82170999" lon="13.57548996">
        <ele>832.00000</ele>
        <time>2024-05-13T12:56:38Z</time>
      </trkpt>
      <trkpt lat="42.82177998" lon="13.57532995">
        <ele>829.00000</ele>
        <time>2024-05-13T12:56:41Z</time>
      </trkpt>
      <trkpt lat="42.82180999" lon="13.57513993">
        <ele>826.00000</ele>
        <time>2024-05-13T12:56:44Z</time>
      </trkpt>
      <trkpt lat="42.82175995" lon="13.57500993">
        <ele>826.00000</ele>
        <time>2024-05-13T12:56:46Z</time>
      </trkpt>
      <trkpt lat="42.82177998" lon="13.57496995">
        <ele>825.00000</ele>
        <time>2024-05-13T12:56:47Z</time>
      </trkpt>
      <trkpt lat="42.82175995" lon="13.57496995">
        <ele>825.00000</ele>
        <time>2024-05-13T12:56:47Z</time>
      </trkpt>
      <trkpt lat="42.82182994" lon="13.57504991">
        <ele>824.00000</ele>
        <time>2024-05-13T12:56:49Z</time>
      </trkpt>
      <trkpt lat="42.82212993" lon="13.57516994">
        <ele>820.00000</ele>
        <time>2024-05-13T12:56:55Z</time>
      </trkpt>
      <trkpt lat="42.82241994" lon="13.57519995">
        <ele>814.00000</ele>
        <time>2024-05-13T12:57:01Z</time>
      </trkpt>
      <trkpt lat="42.82270995" lon="13.57509995">
        <ele>811.00000</ele>
        <time>2024-05-13T12:57:07Z</time>
      </trkpt>
      <trkpt lat="42.82283996" lon="13.57500993">
        <ele>810.00000</ele>
        <time>2024-05-13T12:57:10Z</time>
      </trkpt>
      <trkpt lat="42.82297013" lon="13.57469444">
        <ele>811.00000</ele>
        <time>2024-05-13T12:57:15Z</time>
      </trkpt>
      <trkpt lat="42.82309996" lon="13.57437995">
        <ele>810.00000</ele>
        <time>2024-05-13T12:57:20Z</time>
      </trkpt>
      <trkpt lat="42.82325997" lon="13.57412992">
        <ele>805.00000</ele>
        <time>2024-05-13T12:57:25Z</time>
      </trkpt>
      <trkpt lat="42.82336995" lon="13.57400997">
        <ele>801.00000</ele>
        <time>2024-05-13T12:57:28Z</time>
      </trkpt>
      <trkpt lat="42.82348997" lon="13.57392992">
        <ele>798.00000</ele>
        <time>2024-05-13T12:57:31Z</time>
      </trkpt>
      <trkpt lat="42.82353993" lon="13.57377997">
        <ele>795.00000</ele>
        <time>2024-05-13T12:57:33Z</time>
      </trkpt>
      <trkpt lat="42.82366993" lon="13.57363999">
        <ele>790.00000</ele>
        <time>2024-05-13T12:57:37Z</time>
      </trkpt>
      <trkpt lat="42.82366993" lon="13.57353991">
        <ele>788.00000</ele>
        <time>2024-05-13T12:57:38Z</time>
      </trkpt>
      <trkpt lat="42.82371997" lon="13.57341997">
        <ele>785.00000</ele>
        <time>2024-05-13T12:57:40Z</time>
      </trkpt>
      <trkpt lat="42.82389993" lon="13.57334998">
        <ele>783.00000</ele>
        <time>2024-05-13T12:57:44Z</time>
      </trkpt>
      <trkpt lat="42.82395995" lon="13.57322995">
        <ele>779.00000</ele>
        <time>2024-05-13T12:57:46Z</time>
      </trkpt>
      <trkpt lat="42.82384998" lon="13.57314999">
        <ele>777.00000</ele>
        <time>2024-05-13T12:57:48Z</time>
      </trkpt>
      <trkpt lat="42.82372995" lon="13.57309995">
        <ele>775.00000</ele>
        <time>2024-05-13T12:57:51Z</time>
      </trkpt>
      <trkpt lat="42.82356508" lon="13.57315485">
        <ele>777.00000</ele>
        <time>2024-05-13T12:57:54Z</time>
      </trkpt>
      <trkpt lat="42.82339995" lon="13.57320992">
        <ele>780.00000</ele>
        <time>2024-05-13T12:57:58Z</time>
      </trkpt>
      <trkpt lat="42.82327992" lon="13.57306994">
        <ele>776.00000</ele>
        <time>2024-05-13T12:58:01Z</time>
      </trkpt>
      <trkpt lat="42.82304992" lon="13.57287992">
        <ele>771.00000</ele>
        <time>2024-05-13T12:58:06Z</time>
      </trkpt>
      <trkpt lat="42.82288002" lon="13.57280499">
        <ele>769.00000</ele>
        <time>2024-05-13T12:58:10Z</time>
      </trkpt>
      <trkpt lat="42.82270995" lon="13.57272997">
        <ele>768.00000</ele>
        <time>2024-05-13T12:58:13Z</time>
      </trkpt>
      <trkpt lat="42.82246998" lon="13.57258999">
        <ele>767.00000</ele>
        <time>2024-05-13T12:58:19Z</time>
      </trkpt>
      <trkpt lat="42.82230000" lon="13.57246502">
        <ele>767.00000</ele>
        <time>2024-05-13T12:58:23Z</time>
      </trkpt>
      <trkpt lat="42.82212993" lon="13.57233996">
        <ele>767.00000</ele>
        <time>2024-05-13T12:58:26Z</time>
      </trkpt>
      <trkpt lat="42.82199992" lon="13.57209999">
        <ele>763.00000</ele>
        <time>2024-05-13T12:58:31Z</time>
      </trkpt>
      <trkpt lat="42.82200998" lon="13.57179991">
        <ele>756.00000</ele>
        <time>2024-05-13T12:58:35Z</time>
      </trkpt>
      <trkpt lat="42.82205994" lon="13.57150998">
        <ele>750.00000</ele>
        <time>2024-05-13T12:58:40Z</time>
      </trkpt>
      <trkpt lat="42.82214996" lon="13.57121997">
        <ele>742.00000</ele>
        <time>2024-05-13T12:58:44Z</time>
      </trkpt>
      <trkpt lat="42.82233998" lon="13.57118996">
        <ele>735.00000</ele>
        <time>2024-05-13T12:58:48Z</time>
      </trkpt>
      <trkpt lat="42.82251994" lon="13.57091998">
        <ele>723.00000</ele>
        <time>2024-05-13T12:58:53Z</time>
      </trkpt>
      <trkpt lat="42.82281992" lon="13.57089995">
        <ele>718.00000</ele>
        <time>2024-05-13T12:58:59Z</time>
      </trkpt>
      <trkpt lat="42.82301992" lon="13.57081999">
        <ele>713.00000</ele>
        <time>2024-05-13T12:59:04Z</time>
      </trkpt>
      <trkpt lat="42.82301992" lon="13.57067992">
        <ele>709.00000</ele>
        <time>2024-05-13T12:59:06Z</time>
      </trkpt>
      <trkpt lat="42.82307993" lon="13.57066995">
        <ele>708.00000</ele>
        <time>2024-05-13T12:59:07Z</time>
      </trkpt>
      <trkpt lat="42.82312997" lon="13.57070993">
        <ele>709.00000</ele>
        <time>2024-05-13T12:59:08Z</time>
      </trkpt>
      <trkpt lat="42.82321999" lon="13.57068998">
        <ele>708.00000</ele>
        <time>2024-05-13T12:59:10Z</time>
      </trkpt>
      <trkpt lat="42.82329996" lon="13.57070993">
        <ele>708.00000</ele>
        <time>2024-05-13T12:59:11Z</time>
      </trkpt>
      <trkpt lat="42.82332996" lon="13.57062997">
        <ele>705.00000</ele>
        <time>2024-05-13T12:59:13Z</time>
      </trkpt>
      <trkpt lat="42.82350992" lon="13.57040994">
        <ele>699.00000</ele>
        <time>2024-05-13T12:59:18Z</time>
      </trkpt>
      <trkpt lat="42.82357991" lon="13.57018992">
        <ele>694.00000</ele>
        <time>2024-05-13T12:59:21Z</time>
      </trkpt>
      <trkpt lat="42.82356994" lon="13.57006997">
        <ele>692.00000</ele>
        <time>2024-05-13T12:59:23Z</time>
      </trkpt>
      <trkpt lat="42.82353993" lon="13.56998993">
        <ele>690.00000</ele>
        <time>2024-05-13T12:59:24Z</time>
      </trkpt>
      <trkpt lat="42.82334991" lon="13.56993997">
        <ele>689.00000</ele>
        <time>2024-05-13T12:59:28Z</time>
      </trkpt>
      <trkpt lat="42.82330993" lon="13.56986998">
        <ele>687.00000</ele>
        <time>2024-05-13T12:59:29Z</time>
      </trkpt>
      <trkpt lat="42.82332996" lon="13.56975993">
        <ele>684.00000</ele>
        <time>2024-05-13T12:59:31Z</time>
      </trkpt>
      <trkpt lat="42.82338998" lon="13.56966999">
        <ele>682.00000</ele>
        <time>2024-05-13T12:59:33Z</time>
      </trkpt>
      <trkpt lat="42.82354999" lon="13.56964996">
        <ele>681.00000</ele>
        <time>2024-05-13T12:59:36Z</time>
      </trkpt>
      <trkpt lat="42.82365996" lon="13.56960997">
        <ele>679.00000</ele>
        <time>2024-05-13T12:59:38Z</time>
      </trkpt>
      <trkpt lat="42.82367999" lon="13.56947997">
        <ele>675.00000</ele>
        <time>2024-05-13T12:59:40Z</time>
      </trkpt>
      <trkpt lat="42.82365996" lon="13.56938995">
        <ele>673.00000</ele>
        <time>2024-05-13T12:59:42Z</time>
      </trkpt>
      <trkpt lat="42.82345997" lon="13.56928995">
        <ele>673.00000</ele>
        <time>2024-05-13T12:59:46Z</time>
      </trkpt>
      <trkpt lat="42.82328998" lon="13.56923991">
        <ele>674.00000</ele>
        <time>2024-05-13T12:59:49Z</time>
      </trkpt>
      <trkpt lat="42.82337992" lon="13.56912994">
        <ele>671.00000</ele>
        <time>2024-05-13T12:59:52Z</time>
      </trkpt>
      <trkpt lat="42.82345997" lon="13.56905995">
        <ele>669.00000</ele>
        <time>2024-05-13T12:59:54Z</time>
      </trkpt>
      <trkpt lat="42.82371997" lon="13.56908996">
        <ele>665.00000</ele>
        <time>2024-05-13T12:59:59Z</time>
      </trkpt>
      <trkpt lat="42.82378996" lon="13.56903992">
        <ele>663.00000</ele>
        <time>2024-05-13T13:00:01Z</time>
      </trkpt>
      <trkpt lat="42.82395995" lon="13.56903992">
        <ele>661.00000</ele>
        <time>2024-05-13T13:00:04Z</time>
      </trkpt>
      <trkpt lat="42.82411996" lon="13.56886994">
        <ele>657.00000</ele>
        <time>2024-05-13T13:00:08Z</time>
      </trkpt>
      <trkpt lat="42.82424996" lon="13.56888997">
        <ele>656.00000</ele>
        <time>2024-05-13T13:00:11Z</time>
      </trkpt>
      <trkpt lat="42.82436999" lon="13.56886994">
        <ele>656.00000</ele>
        <time>2024-05-13T13:00:13Z</time>
      </trkpt>
      <trkpt lat="42.82450997" lon="13.56850993">
        <ele>653.00000</ele>
        <time>2024-05-13T13:00:19Z</time>
      </trkpt>
      <trkpt lat="42.82461994" lon="13.56833995">
        <ele>651.00000</ele>
        <time>2024-05-13T13:00:22Z</time>
      </trkpt>
      <trkpt lat="42.82478992" lon="13.56827993">
        <ele>649.00000</ele>
        <time>2024-05-13T13:00:26Z</time>
      </trkpt>
      <trkpt lat="42.82498992" lon="13.56825998">
        <ele>647.00000</ele>
        <time>2024-05-13T13:00:30Z</time>
      </trkpt>
      <trkpt lat="42.82506996" lon="13.56810995">
        <ele>647.00000</ele>
        <time>2024-05-13T13:00:33Z</time>
      </trkpt>
      <trkpt lat="42.82528999" lon="13.56788992">
        <ele>646.00000</ele>
        <time>2024-05-13T13:00:38Z</time>
      </trkpt>
      <trkpt lat="42.82544991" lon="13.56781993">
        <ele>645.00000</ele>
        <time>2024-05-13T13:00:41Z</time>
      </trkpt>
      <trkpt lat="42.82552996" lon="13.56768993">
        <ele>643.00000</ele>
        <time>2024-05-13T13:00:44Z</time>
      </trkpt>
      <trkpt lat="42.82569995" lon="13.56764995">
        <ele>641.00000</ele>
        <time>2024-05-13T13:00:47Z</time>
      </trkpt>
      <trkpt lat="42.82585996" lon="13.56754995">
        <ele>640.00000</ele>
        <time>2024-05-13T13:00:51Z</time>
      </trkpt>
      <trkpt lat="42.82593992" lon="13.56728995">
        <ele>637.00000</ele>
        <time>2024-05-13T13:00:55Z</time>
      </trkpt>
      <trkpt lat="42.82595995" lon="13.56712994">
        <ele>634.00000</ele>
        <time>2024-05-13T13:00:57Z</time>
      </trkpt>
      <trkpt lat="42.82602994" lon="13.56701997">
        <ele>631.00000</ele>
        <time>2024-05-13T13:01:00Z</time>
      </trkpt>
      <trkpt lat="42.82599993" lon="13.56690991">
        <ele>630.00000</ele>
        <time>2024-05-13T13:01:01Z</time>
      </trkpt>
      <trkpt lat="42.82602994" lon="13.56682995">
        <ele>628.00000</ele>
        <time>2024-05-13T13:01:03Z</time>
      </trkpt>
      <trkpt lat="42.82604997" lon="13.56655997">
        <ele>624.00000</ele>
        <time>2024-05-13T13:01:07Z</time>
      </trkpt>
      <trkpt lat="42.82610999" lon="13.56623995">
        <ele>619.00000</ele>
        <time>2024-05-13T13:01:11Z</time>
      </trkpt>
      <trkpt lat="42.82615995" lon="13.56617993">
        <ele>617.00000</ele>
        <time>2024-05-13T13:01:13Z</time>
      </trkpt>
      <trkpt lat="42.82621996" lon="13.56618999">
        <ele>616.00000</ele>
        <time>2024-05-13T13:01:14Z</time>
      </trkpt>
      <trkpt lat="42.82618995" lon="13.56601992">
        <ele>613.00000</ele>
        <time>2024-05-13T13:01:17Z</time>
      </trkpt>
      <trkpt lat="42.82613991" lon="13.56592998">
        <ele>611.00000</ele>
        <time>2024-05-13T13:01:18Z</time>
      </trkpt>
      <trkpt lat="42.82617998" lon="13.56578992">
        <ele>607.00000</ele>
        <time>2024-05-13T13:01:20Z</time>
      </trkpt>
      <trkpt lat="42.82622993" lon="13.56583996">
        <ele>607.00000</ele>
        <time>2024-05-13T13:01:22Z</time>
      </trkpt>
      <trkpt lat="42.82627997" lon="13.56573997">
        <ele>604.00000</ele>
        <time>2024-05-13T13:01:23Z</time>
      </trkpt>
      <trkpt lat="42.82633999" lon="13.56572999">
        <ele>602.00000</ele>
        <time>2024-05-13T13:01:25Z</time>
      </trkpt>
      <trkpt lat="42.82646999" lon="13.56559999">
        <ele>596.00000</ele>
        <time>2024-05-13T13:01:28Z</time>
      </trkpt>
      <trkpt lat="42.82659991" lon="13.56566998">
        <ele>595.00000</ele>
        <time>2024-05-13T13:01:31Z</time>
      </trkpt>
      <trkpt lat="42.82665993" lon="13.56566998">
        <ele>593.00000</ele>
        <time>2024-05-13T13:01:32Z</time>
      </trkpt>
      <trkpt lat="42.82676998" lon="13.56556998">
        <ele>589.00000</ele>
        <time>2024-05-13T13:01:35Z</time>
      </trkpt>
      <trkpt lat="42.82690996" lon="13.56552992">
        <ele>586.00000</ele>
        <time>2024-05-13T13:01:37Z</time>
      </trkpt>
      <trkpt lat="42.82698992" lon="13.56561994">
        <ele>585.00000</ele>
        <time>2024-05-13T13:01:39Z</time>
      </trkpt>
      <trkpt lat="42.82710995" lon="13.56568993">
        <ele>583.00000</ele>
        <time>2024-05-13T13:01:42Z</time>
      </trkpt>
      <trkpt lat="42.82728999" lon="13.56584994">
        <ele>581.00000</ele>
        <time>2024-05-13T13:01:46Z</time>
      </trkpt>
      <trkpt lat="42.82741991" lon="13.56601992">
        <ele>582.00000</ele>
        <time>2024-05-13T13:01:50Z</time>
      </trkpt>
      <trkpt lat="42.82752997" lon="13.56595999">
        <ele>579.00000</ele>
        <time>2024-05-13T13:01:52Z</time>
      </trkpt>
      <trkpt lat="42.82756995" lon="13.56562991">
        <ele>571.00000</ele>
        <time>2024-05-13T13:01:57Z</time>
      </trkpt>
      <trkpt lat="42.82762996" lon="13.56550997">
        <ele>568.00000</ele>
        <time>2024-05-13T13:01:59Z</time>
      </trkpt>
      <trkpt lat="42.82775997" lon="13.56547996">
        <ele>568.00000</ele>
        <time>2024-05-13T13:02:02Z</time>
      </trkpt>
      <trkpt lat="42.82783993" lon="13.56541994">
        <ele>567.00000</ele>
        <time>2024-05-13T13:02:04Z</time>
      </trkpt>
      <trkpt lat="42.82797999" lon="13.56522993">
        <ele>562.00000</ele>
        <time>2024-05-13T13:02:08Z</time>
      </trkpt>
      <trkpt lat="42.82819993" lon="13.56520998">
        <ele>561.00000</ele>
        <time>2024-05-13T13:02:12Z</time>
      </trkpt>
      <trkpt lat="42.82831996" lon="13.56522993">
        <ele>560.00000</ele>
        <time>2024-05-13T13:02:15Z</time>
      </trkpt>
      <trkpt lat="42.82840998" lon="13.56529992">
        <ele>561.00000</ele>
        <time>2024-05-13T13:02:17Z</time>
      </trkpt>
      <trkpt lat="42.82862992" lon="13.56526999">
        <ele>557.00000</ele>
        <time>2024-05-13T13:02:21Z</time>
      </trkpt>
      <trkpt lat="42.82867996" lon="13.56507997">
        <ele>551.00000</ele>
        <time>2024-05-13T13:02:24Z</time>
      </trkpt>
      <trkpt lat="42.82864996" lon="13.56495995">
        <ele>547.00000</ele>
        <time>2024-05-13T13:02:26Z</time>
      </trkpt>
      <trkpt lat="42.82842993" lon="13.56472995">
        <ele>543.00000</ele>
        <time>2024-05-13T13:02:32Z</time>
      </trkpt>
      <trkpt lat="42.82829993" lon="13.56462995">
        <ele>541.00000</ele>
        <time>2024-05-13T13:02:35Z</time>
      </trkpt>
      <trkpt lat="42.82812994" lon="13.56454999">
        <ele>540.00000</ele>
        <time>2024-05-13T13:02:38Z</time>
      </trkpt>
      <trkpt lat="42.82799994" lon="13.56451998">
        <ele>539.00000</ele>
        <time>2024-05-13T13:02:41Z</time>
      </trkpt>
      <trkpt lat="42.82776994" lon="13.56456994">
        <ele>539.00000</ele>
        <time>2024-05-13T13:02:45Z</time>
      </trkpt>
      <trkpt lat="42.82757515" lon="13.56451998">
        <ele>541.00000</ele>
        <time>2024-05-13T13:02:49Z</time>
      </trkpt>
      <trkpt lat="42.82737993" lon="13.56446994">
        <ele>545.00000</ele>
        <time>2024-05-13T13:02:53Z</time>
      </trkpt>
      <trkpt lat="42.82735998" lon="13.56434999">
        <ele>543.00000</ele>
        <time>2024-05-13T13:02:55Z</time>
      </trkpt>
      <trkpt lat="42.82738999" lon="13.56410994">
        <ele>538.00000</ele>
        <time>2024-05-13T13:02:59Z</time>
      </trkpt>
      <trkpt lat="42.82743995" lon="13.56387994">
        <ele>533.00000</ele>
        <time>2024-05-13T13:03:02Z</time>
      </trkpt>
      <trkpt lat="42.82751999" lon="13.56371993">
        <ele>529.00000</ele>
        <time>2024-05-13T13:03:05Z</time>
      </trkpt>
      <trkpt lat="42.82761999" lon="13.56364994">
        <ele>527.00000</ele>
        <time>2024-05-13T13:03:07Z</time>
      </trkpt>
      <trkpt lat="42.82773993" lon="13.56375999">
        <ele>526.00000</ele>
        <time>2024-05-13T13:03:10Z</time>
      </trkpt>
      <trkpt lat="42.82790992" lon="13.56384993">
        <ele>524.00000</ele>
        <time>2024-05-13T13:03:14Z</time>
      </trkpt>
      <trkpt lat="42.82815626" lon="13.56390316">
        <ele>521.00000</ele>
        <time>2024-05-13T13:03:19Z</time>
      </trkpt>
      <trkpt lat="42.82840269" lon="13.56395646">
        <ele>519.00000</ele>
        <time>2024-05-13T13:03:24Z</time>
      </trkpt>
      <trkpt lat="42.82864996" lon="13.56400994">
        <ele>520.00000</ele>
        <time>2024-05-13T13:03:29Z</time>
      </trkpt>
      <trkpt lat="42.82881994" lon="13.56397993">
        <ele>520.00000</ele>
        <time>2024-05-13T13:03:32Z</time>
      </trkpt>
      <trkpt lat="42.82895992" lon="13.56385496">
        <ele>518.00000</ele>
        <time>2024-05-13T13:03:36Z</time>
      </trkpt>
      <trkpt lat="42.82909998" lon="13.56372999">
        <ele>517.00000</ele>
        <time>2024-05-13T13:03:39Z</time>
      </trkpt>
      <trkpt lat="42.82919998" lon="13.56349999">
        <ele>515.00000</ele>
        <time>2024-05-13T13:03:43Z</time>
      </trkpt>
      <trkpt lat="42.82921993" lon="13.56322992">
        <ele>512.00000</ele>
        <time>2024-05-13T13:03:47Z</time>
      </trkpt>
      <trkpt lat="42.82912999" lon="13.56307997">
        <ele>509.00000</ele>
        <time>2024-05-13T13:03:50Z</time>
      </trkpt>
      <trkpt lat="42.82902999" lon="13.56302993">
        <ele>507.00000</ele>
        <time>2024-05-13T13:03:52Z</time>
      </trkpt>
      <trkpt lat="42.82891994" lon="13.56305994">
        <ele>505.00000</ele>
        <time>2024-05-13T13:03:54Z</time>
      </trkpt>
      <trkpt lat="42.82880997" lon="13.56284997">
        <ele>501.00000</ele>
        <time>2024-05-13T13:03:58Z</time>
      </trkpt>
      <trkpt lat="42.82873998" lon="13.56251997">
        <ele>498.00000</ele>
        <time>2024-05-13T13:04:03Z</time>
      </trkpt>
      <trkpt lat="42.82865993" lon="13.56230992">
        <ele>495.00000</ele>
        <time>2024-05-13T13:04:06Z</time>
      </trkpt>
      <trkpt lat="42.82853999" lon="13.56208998">
        <ele>493.00000</ele>
        <time>2024-05-13T13:04:11Z</time>
      </trkpt>
      <trkpt lat="42.82848995" lon="13.56189996">
        <ele>490.00000</ele>
        <time>2024-05-13T13:04:13Z</time>
      </trkpt>
      <trkpt lat="42.82838995" lon="13.56177994">
        <ele>489.00000</ele>
        <time>2024-05-13T13:04:16Z</time>
      </trkpt>
      <trkpt lat="42.82819331" lon="13.56164331">
        <ele>491.00000</ele>
        <time>2024-05-13T13:04:21Z</time>
      </trkpt>
      <trkpt lat="42.82799676" lon="13.56150669">
        <ele>493.00000</ele>
        <time>2024-05-13T13:04:25Z</time>
      </trkpt>
      <trkpt lat="42.82779995" lon="13.56136998">
        <ele>495.00000</ele>
        <time>2024-05-13T13:04:29Z</time>
      </trkpt>
      <trkpt lat="42.82769995" lon="13.56110997">
        <ele>490.00000</ele>
        <time>2024-05-13T13:04:34Z</time>
      </trkpt>
      <trkpt lat="42.82754992" lon="13.56112992">
        <ele>492.00000</ele>
        <time>2024-05-13T13:04:37Z</time>
      </trkpt>
      <trkpt lat="42.82743995" lon="13.56105993">
        <ele>492.00000</ele>
        <time>2024-05-13T13:04:39Z</time>
      </trkpt>
      <trkpt lat="42.82731992" lon="13.56090998">
        <ele>489.00000</ele>
        <time>2024-05-13T13:04:42Z</time>
      </trkpt>
      <trkpt lat="42.82711992" lon="13.56075994">
        <ele>488.00000</ele>
        <time>2024-05-13T13:04:47Z</time>
      </trkpt>
      <trkpt lat="42.82696997" lon="13.56047999">
        <ele>490.00000</ele>
        <time>2024-05-13T13:04:52Z</time>
      </trkpt>
      <trkpt lat="42.82687995" lon="13.56022995">
        <ele>489.00000</ele>
        <time>2024-05-13T13:04:56Z</time>
      </trkpt>
      <trkpt lat="42.82689495" lon="13.55999434">
        <ele>485.00000</ele>
        <time>2024-05-13T13:05:00Z</time>
      </trkpt>
      <trkpt lat="42.82690996" lon="13.55975998">
        <ele>481.00000</ele>
        <time>2024-05-13T13:05:03Z</time>
      </trkpt>
      <trkpt lat="42.82688993" lon="13.55943996">
        <ele>476.00000</ele>
        <time>2024-05-13T13:05:08Z</time>
      </trkpt>
      <trkpt lat="42.82679974" lon="13.55920954">
        <ele>469.00000</ele>
        <time>2024-05-13T13:05:12Z</time>
      </trkpt>
      <trkpt lat="42.82670997" lon="13.55897996">
        <ele>462.00000</ele>
        <time>2024-05-13T13:05:16Z</time>
      </trkpt>
      <trkpt lat="42.82659991" lon="13.55893998">
        <ele>461.00000</ele>
        <time>2024-05-13T13:05:18Z</time>
      </trkpt>
      <trkpt lat="42.82648994" lon="13.55904995">
        <ele>463.00000</ele>
        <time>2024-05-13T13:05:21Z</time>
      </trkpt>
      <trkpt lat="42.82634996" lon="13.55908993">
        <ele>462.00000</ele>
        <time>2024-05-13T13:05:23Z</time>
      </trkpt>
      <trkpt lat="42.82619993" lon="13.55903998">
        <ele>455.00000</ele>
        <time>2024-05-13T13:05:26Z</time>
      </trkpt>
      <trkpt lat="42.82614997" lon="13.55881995">
        <ele>449.00000</ele>
        <time>2024-05-13T13:05:30Z</time>
      </trkpt>
      <trkpt lat="42.82617998" lon="13.55864997">
        <ele>446.00000</ele>
        <time>2024-05-13T13:05:32Z</time>
      </trkpt>
      <trkpt lat="42.82606992" lon="13.55894995">
        <ele>448.00000</ele>
        <time>2024-05-13T13:05:37Z</time>
      </trkpt>
      <trkpt lat="42.82596993" lon="13.55912991">
        <ele>446.00000</ele>
        <time>2024-05-13T13:05:41Z</time>
      </trkpt>
      <trkpt lat="42.82585996" lon="13.55921993">
        <ele>442.00000</ele>
        <time>2024-05-13T13:05:43Z</time>
      </trkpt>
      <trkpt lat="42.82556994" lon="13.55936997">
        <ele>438.00000</ele>
        <time>2024-05-13T13:05:49Z</time>
      </trkpt>
      <trkpt lat="42.82540993" lon="13.55953996">
        <ele>440.00000</ele>
        <time>2024-05-13T13:05:54Z</time>
      </trkpt>
      <trkpt lat="42.82522997" lon="13.55959997">
        <ele>436.00000</ele>
        <time>2024-05-13T13:05:57Z</time>
      </trkpt>
      <trkpt lat="42.82513995" lon="13.55958991">
        <ele>433.00000</ele>
        <time>2024-05-13T13:05:59Z</time>
      </trkpt>
      <trkpt lat="42.82506996" lon="13.55953996">
        <ele>430.00000</ele>
        <time>2024-05-13T13:06:01Z</time>
      </trkpt>
      <trkpt lat="42.82489998" lon="13.55950995">
        <ele>427.00000</ele>
        <time>2024-05-13T13:06:04Z</time>
      </trkpt>
      <trkpt lat="42.82469999" lon="13.55955999">
        <ele>425.00000</ele>
        <time>2024-05-13T13:06:08Z</time>
      </trkpt>
      <trkpt lat="42.82474994" lon="13.55918993">
        <ele>419.00000</ele>
        <time>2024-05-13T13:06:14Z</time>
      </trkpt>
      <trkpt lat="42.82482999" lon="13.55915992">
        <ele>419.00000</ele>
        <time>2024-05-13T13:06:15Z</time>
      </trkpt>
      <trkpt lat="42.82477995" lon="13.55897996">
        <ele>415.00000</ele>
        <time>2024-05-13T13:06:18Z</time>
      </trkpt>
      <trkpt lat="42.82474994" lon="13.55871995">
        <ele>412.00000</ele>
        <time>2024-05-13T13:06:22Z</time>
      </trkpt>
      <trkpt lat="42.82478992" lon="13.55846992">
        <ele>410.00000</ele>
        <time>2024-05-13T13:06:26Z</time>
      </trkpt>
      <trkpt lat="42.82489998" lon="13.55826993">
        <ele>408.00000</ele>
        <time>2024-05-13T13:06:29Z</time>
      </trkpt>
      <trkpt lat="42.82502998" lon="13.55820992">
        <ele>407.00000</ele>
        <time>2024-05-13T13:06:32Z</time>
      </trkpt>
      <trkpt lat="42.82507994" lon="13.55803993">
        <ele>405.00000</ele>
        <time>2024-05-13T13:06:35Z</time>
      </trkpt>
      <trkpt lat="42.82506988" lon="13.55777422">
        <ele>403.00000</ele>
        <time>2024-05-13T13:06:39Z</time>
      </trkpt>
      <trkpt lat="42.82505999" lon="13.55750994">
        <ele>401.00000</ele>
        <time>2024-05-13T13:06:43Z</time>
      </trkpt>
      <trkpt lat="42.82508991" lon="13.55735999">
        <ele>400.00000</ele>
        <time>2024-05-13T13:06:45Z</time>
      </trkpt>
      <trkpt lat="42.82521338" lon="13.55710292">
        <ele>396.00000</ele>
        <time>2024-05-13T13:06:50Z</time>
      </trkpt>
      <trkpt lat="42.82533693" lon="13.55684593">
        <ele>392.00000</ele>
        <time>2024-05-13T13:06:54Z</time>
      </trkpt>
      <trkpt lat="42.82545997" lon="13.55658994">
        <ele>387.00000</ele>
        <time>2024-05-13T13:06:59Z</time>
      </trkpt>
      <trkpt lat="42.82563993" lon="13.55637998">
        <ele>381.00000</ele>
        <time>2024-05-13T13:07:03Z</time>
      </trkpt>
      <trkpt lat="42.82570992" lon="13.55623992">
        <ele>379.00000</ele>
        <time>2024-05-13T13:07:06Z</time>
      </trkpt>
      <trkpt lat="42.82578008" lon="13.55600941">
        <ele>372.00000</ele>
        <time>2024-05-13T13:07:09Z</time>
      </trkpt>
      <trkpt lat="42.82584998" lon="13.55577992">
        <ele>364.00000</ele>
        <time>2024-05-13T13:07:13Z</time>
      </trkpt>
      <trkpt lat="42.82566986" lon="13.55556484">
        <ele>366.00000</ele>
        <time>2024-05-13T13:07:18Z</time>
      </trkpt>
      <trkpt lat="42.82548998" lon="13.55534993">
        <ele>364.00000</ele>
        <time>2024-05-13T13:07:23Z</time>
      </trkpt>
      <trkpt lat="42.82536995" lon="13.55532998">
        <ele>366.00000</ele>
        <time>2024-05-13T13:07:25Z</time>
      </trkpt>
      <trkpt lat="42.82515998" lon="13.55521992">
        <ele>365.00000</ele>
        <time>2024-05-13T13:07:30Z</time>
      </trkpt>
      <trkpt lat="42.82491993" lon="13.55517994">
        <ele>366.00000</ele>
        <time>2024-05-13T13:07:34Z</time>
      </trkpt>
      <trkpt lat="42.82470996" lon="13.55518992">
        <ele>366.00000</ele>
        <time>2024-05-13T13:07:39Z</time>
      </trkpt>
      <trkpt lat="42.82453997" lon="13.55527994">
        <ele>369.00000</ele>
        <time>2024-05-13T13:07:42Z</time>
      </trkpt>
      <trkpt lat="42.82439991" lon="13.55538999">
        <ele>371.00000</ele>
        <time>2024-05-13T13:07:46Z</time>
      </trkpt>
      <trkpt lat="42.82422012" lon="13.55543986">
        <ele>372.00000</ele>
        <time>2024-05-13T13:07:49Z</time>
      </trkpt>
      <trkpt lat="42.82403999" lon="13.55548999">
        <ele>372.00000</ele>
        <time>2024-05-13T13:07:53Z</time>
      </trkpt>
      <trkpt lat="42.82378996" lon="13.55560993">
        <ele>373.00000</ele>
        <time>2024-05-13T13:07:58Z</time>
      </trkpt>
      <trkpt lat="42.82356516" lon="13.55565486">
        <ele>374.00000</ele>
        <time>2024-05-13T13:08:03Z</time>
      </trkpt>
      <trkpt lat="42.82333994" lon="13.55569995">
        <ele>373.00000</ele>
        <time>2024-05-13T13:08:07Z</time>
      </trkpt>
      <trkpt lat="42.82305026" lon="13.55570490">
        <ele>373.00000</ele>
        <time>2024-05-13T13:08:13Z</time>
      </trkpt>
      <trkpt lat="42.82275999" lon="13.55570993">
        <ele>375.00000</ele>
        <time>2024-05-13T13:08:19Z</time>
      </trkpt>
      <trkpt lat="42.82248029" lon="13.55574488">
        <ele>379.00000</ele>
        <time>2024-05-13T13:08:24Z</time>
      </trkpt>
      <trkpt lat="42.82219992" lon="13.55577992">
        <ele>389.00000</ele>
        <time>2024-05-13T13:08:30Z</time>
      </trkpt>
      <trkpt lat="42.82215993" lon="13.55565997">
        <ele>386.00000</ele>
        <time>2024-05-13T13:08:32Z</time>
      </trkpt>
      <trkpt lat="42.82186992" lon="13.55557993">
        <ele>390.00000</ele>
        <time>2024-05-13T13:08:38Z</time>
      </trkpt>
      <trkpt lat="42.82176992" lon="13.55551999">
        <ele>391.00000</ele>
        <time>2024-05-13T13:08:40Z</time>
      </trkpt>
      <trkpt lat="42.82168996" lon="13.55530994">
        <ele>389.00000</ele>
        <time>2024-05-13T13:08:44Z</time>
      </trkpt>
      <trkpt lat="42.82162995" lon="13.55491993">
        <ele>389.00000</ele>
        <time>2024-05-13T13:08:49Z</time>
      </trkpt>
      <trkpt lat="42.82166498" lon="13.55464928">
        <ele>388.00000</ele>
        <time>2024-05-13T13:08:54Z</time>
      </trkpt>
      <trkpt lat="42.82169993" lon="13.55437997">
        <ele>387.00000</ele>
        <time>2024-05-13T13:08:58Z</time>
      </trkpt>
      <trkpt lat="42.82159977" lon="13.55410446">
        <ele>391.00000</ele>
        <time>2024-05-13T13:09:02Z</time>
      </trkpt>
      <trkpt lat="42.82149994" lon="13.55382995">
        <ele>395.00000</ele>
        <time>2024-05-13T13:09:07Z</time>
      </trkpt>
      <trkpt lat="42.82145996" lon="13.55363993">
        <ele>397.00000</ele>
        <time>2024-05-13T13:09:09Z</time>
      </trkpt>
      <trkpt lat="42.82147999" lon="13.55342997">
        <ele>400.00000</ele>
        <time>2024-05-13T13:09:13Z</time>
      </trkpt>
      <trkpt lat="42.82158996" lon="13.55308991">
        <ele>402.00000</ele>
        <time>2024-05-13T13:09:18Z</time>
      </trkpt>
      <trkpt lat="42.82162995" lon="13.55299998">
        <ele>402.00000</ele>
        <time>2024-05-13T13:09:20Z</time>
      </trkpt>
      <trkpt lat="42.82175995" lon="13.55291993">
        <ele>400.00000</ele>
        <time>2024-05-13T13:09:22Z</time>
      </trkpt>
    </trkseg>
  </trk>
</gpx>

